IBE0274 MDSD-LEMD
Flight info
| Callsign | IBE0274 |
|---|---|
| Flight time | N/A |
| Altitude | 37000 |
| Route | MELLA G633 DDP/M082F370 DCT RKDIA DCT 25N050W 3030N04000W 33N030W 3430N02000W DCT MANOX/N0473F360 DCT TOFEF DCT OGERO Z409 TLD |
| Aircraft | A332/H-SDE3GHIJ2J3J5M1RVWXY/LB2D1 |
Departure
| Time | N/A |
|---|---|
| Airport | Las Américas International Airport (MDSD) |
Arrival
| Time | 2026-05-08 02:54 |
|---|---|
| Airport | Adolfo Suárez Madrid–Barajas Airport (LEMD) |
| Time | Latitude | Longitude | Altitude | Speed | Heading |
|---|---|---|---|---|---|
| 2026-05-07 19:58 | 18.74271 | -65.75196 | 34255 ft | 492 kts | 65° |
| 2026-05-07 19:59 | 18.75641 | -65.71884 | 34417 ft | 493 kts | 65° |
| 2026-05-07 19:59 | 18.77012 | -65.68569 | 34581 ft | 493 kts | 65° |
| 2026-05-07 19:59 | 18.78384 | -65.65249 | 34740 ft | 494 kts | 65° |
| 2026-05-07 19:59 | 18.79755 | -65.61931 | 34982 ft | 493 kts | 65° |
| 2026-05-07 20:00 | 18.81124 | -65.58616 | 35124 ft | 494 kts | 65° |
| 2026-05-07 20:00 | 18.82500 | -65.55282 | 35223 ft | 496 kts | 65° |
| 2026-05-07 20:00 | 18.83877 | -65.51943 | 35387 ft | 496 kts | 65° |
| 2026-05-07 20:00 | 18.85255 | -65.48600 | 35556 ft | 497 kts | 65° |
| 2026-05-07 20:01 | 18.86631 | -65.45257 | 35713 ft | 497 kts | 65° |
| 2026-05-07 20:01 | 18.88009 | -65.41908 | 35873 ft | 497 kts | 65° |
| 2026-05-07 20:01 | 18.89388 | -65.38555 | 36021 ft | 498 kts | 65° |
| 2026-05-07 20:01 | 18.90766 | -65.35202 | 36178 ft | 498 kts | 65° |
| 2026-05-07 20:02 | 18.92147 | -65.31843 | 36322 ft | 499 kts | 65° |
| 2026-05-07 20:02 | 18.93527 | -65.28483 | 36454 ft | 500 kts | 65° |
| 2026-05-07 20:02 | 18.96306 | -65.21710 | 36599 ft | 504 kts | 65° |
| 2026-05-07 20:03 | 18.97697 | -65.18315 | 36756 ft | 504 kts | 65° |
| 2026-05-07 20:03 | 18.99088 | -65.14919 | 36901 ft | 504 kts | 65° |
| 2026-05-07 20:03 | 19.00479 | -65.11519 | 37039 ft | 504 kts | 65° |
| 2026-05-07 20:03 | 19.01872 | -65.08114 | 37125 ft | 506 kts | 65° |
| 2026-05-07 20:04 | 19.04655 | -65.01302 | 37120 ft | 503 kts | 65° |
| 2026-05-07 20:04 | 19.07403 | -64.94569 | 37127 ft | 503 kts | 65° |
| 2026-05-07 20:05 | 19.10181 | -64.87757 | 37129 ft | 505 kts | 65° |
| 2026-05-07 20:05 | 19.12962 | -64.80926 | 37124 ft | 506 kts | 66° |
| 2026-05-07 20:06 | 19.15739 | -64.74094 | 37123 ft | 506 kts | 66° |
| 2026-05-07 20:06 | 19.18515 | -64.67261 | 37125 ft | 506 kts | 65° |
| 2026-05-07 20:07 | 19.21287 | -64.60425 | 37126 ft | 506 kts | 66° |
| 2026-05-07 20:07 | 19.24059 | -64.53584 | 37125 ft | 506 kts | 66° |
| 2026-05-07 20:08 | 19.26821 | -64.46754 | 37126 ft | 503 kts | 65° |
| 2026-05-07 20:08 | 19.29568 | -64.39957 | 37130 ft | 502 kts | 65° |
| 2026-05-07 20:09 | 19.32312 | -64.33161 | 37129 ft | 503 kts | 66° |
| 2026-05-07 20:10 | 19.36441 | -64.22916 | 37130 ft | 505 kts | 66° |
| 2026-05-07 20:10 | 19.39194 | -64.16071 | 37127 ft | 505 kts | 66° |
| 2026-05-07 20:11 | 19.41944 | -64.09226 | 37127 ft | 505 kts | 66° |
| 2026-05-07 20:11 | 19.44692 | -64.02379 | 37135 ft | 506 kts | 66° |
| 2026-05-07 20:12 | 19.47453 | -63.95493 | 37135 ft | 509 kts | 66° |
| 2026-05-07 20:12 | 19.50218 | -63.88583 | 37135 ft | 509 kts | 66° |
| 2026-05-07 20:13 | 19.52982 | -63.81670 | 37134 ft | 509 kts | 66° |
| 2026-05-07 20:13 | 19.55742 | -63.74755 | 37134 ft | 509 kts | 66° |
| 2026-05-07 20:14 | 19.58504 | -63.67827 | 37138 ft | 512 kts | 66° |
| 2026-05-07 20:14 | 19.61276 | -63.60866 | 37139 ft | 513 kts | 66° |
| 2026-05-07 20:15 | 19.64049 | -63.53895 | 37138 ft | 513 kts | 66° |
| 2026-05-07 20:15 | 19.66816 | -63.46927 | 37137 ft | 512 kts | 66° |
| 2026-05-07 20:16 | 19.69578 | -63.39964 | 37140 ft | 512 kts | 66° |
| 2026-05-07 20:16 | 19.72337 | -63.32997 | 37140 ft | 512 kts | 67° |
| 2026-05-07 20:17 | 19.75094 | -63.26028 | 37140 ft | 512 kts | 67° |
| 2026-05-07 20:17 | 19.77829 | -63.19106 | 37144 ft | 512 kts | 67° |
| 2026-05-07 20:18 | 19.80580 | -63.12132 | 37137 ft | 512 kts | 67° |
| 2026-05-07 20:18 | 19.83338 | -63.05135 | 37148 ft | 515 kts | 67° |
| 2026-05-07 20:19 | 19.86102 | -62.98109 | 37146 ft | 516 kts | 67° |
| 2026-05-07 20:19 | 19.88864 | -62.91079 | 37145 ft | 516 kts | 67° |
| 2026-05-07 20:20 | 19.91621 | -62.84052 | 37152 ft | 514 kts | 67° |
| 2026-05-07 20:20 | 19.94365 | -62.77051 | 37148 ft | 513 kts | 67° |
| 2026-05-07 20:21 | 19.97111 | -62.70037 | 37150 ft | 514 kts | 67° |
| 2026-05-07 20:21 | 19.99855 | -62.63016 | 37148 ft | 514 kts | 67° |
| 2026-05-07 20:22 | 20.02598 | -62.55989 | 37138 ft | 514 kts | 67° |
| 2026-05-07 20:22 | 20.05339 | -62.48958 | 37148 ft | 516 kts | 68° |
| 2026-05-07 20:23 | 20.08089 | -62.41895 | 37147 ft | 518 kts | 68° |
| 2026-05-07 20:23 | 20.10840 | -62.34817 | 37152 ft | 518 kts | 68° |
| 2026-05-07 20:24 | 20.13584 | -62.27744 | 37146 ft | 516 kts | 68° |
| 2026-05-07 20:24 | 20.16317 | -62.20697 | 37146 ft | 515 kts | 68° |
| 2026-05-07 20:25 | 20.19032 | -62.13682 | 37152 ft | 517 kts | 68° |
| 2026-05-07 20:25 | 20.21768 | -62.06608 | 37149 ft | 517 kts | 68° |
| 2026-05-07 20:26 | 20.24520 | -61.99478 | 37146 ft | 517 kts | 68° |
| 2026-05-07 20:26 | 20.27232 | -61.92444 | 37162 ft | 517 kts | 68° |
| 2026-05-07 20:27 | 20.29964 | -61.85348 | 37157 ft | 519 kts | 68° |
| 2026-05-07 20:27 | 20.32700 | -61.78229 | 37151 ft | 519 kts | 68° |
| 2026-05-07 20:28 | 20.35426 | -61.71127 | 37150 ft | 517 kts | 68° |
| 2026-05-07 20:28 | 20.38147 | -61.64031 | 37150 ft | 517 kts | 68° |
| 2026-05-07 20:29 | 20.40864 | -61.56935 | 37154 ft | 517 kts | 68° |
| 2026-05-07 20:29 | 20.43579 | -61.49833 | 37151 ft | 517 kts | 68° |
| 2026-05-07 20:30 | 20.46290 | -61.42730 | 37149 ft | 517 kts | 68° |
| 2026-05-07 20:30 | 20.48999 | -61.35623 | 37153 ft | 517 kts | 68° |
| 2026-05-07 20:31 | 20.51687 | -61.28561 | 37166 ft | 518 kts | 68° |
| 2026-05-07 20:31 | 20.54395 | -61.21436 | 37157 ft | 518 kts | 68° |
| 2026-05-07 20:32 | 20.57096 | -61.14321 | 37152 ft | 517 kts | 68° |
| 2026-05-07 20:32 | 20.59793 | -61.07205 | 37160 ft | 517 kts | 68° |
| 2026-05-07 20:33 | 20.62488 | -61.00086 | 37156 ft | 518 kts | 69° |
| 2026-05-07 20:33 | 20.65190 | -60.92937 | 37151 ft | 519 kts | 69° |
| 2026-05-07 20:34 | 20.67889 | -60.85783 | 37158 ft | 519 kts | 69° |
| 2026-05-07 20:34 | 20.70588 | -60.78622 | 37152 ft | 519 kts | 69° |
| 2026-05-07 20:35 | 20.73280 | -60.71467 | 37155 ft | 519 kts | 69° |
| 2026-05-07 20:35 | 20.75970 | -60.64308 | 37162 ft | 519 kts | 69° |
| 2026-05-07 20:36 | 20.78656 | -60.57151 | 37160 ft | 519 kts | 69° |
| 2026-05-07 20:36 | 20.81341 | -60.49984 | 37158 ft | 519 kts | 69° |
| 2026-05-07 20:37 | 20.84021 | -60.42820 | 37155 ft | 520 kts | 69° |
| 2026-05-07 20:37 | 20.86688 | -60.35682 | 37165 ft | 521 kts | 69° |
| 2026-05-07 20:38 | 20.89374 | -60.28480 | 37153 ft | 521 kts | 69° |
| 2026-05-07 20:38 | 20.92055 | -60.21281 | 37164 ft | 521 kts | 69° |
| 2026-05-07 20:39 | 20.94728 | -60.14095 | 37156 ft | 520 kts | 69° |
| 2026-05-07 20:39 | 20.97401 | -60.06899 | 37164 ft | 521 kts | 69° |
| 2026-05-07 20:40 | 21.00087 | -59.99696 | 37160 ft | 521 kts | 68° |
| 2026-05-07 20:40 | 21.03089 | -59.92629 | 37159 ft | 522 kts | 65° |
| 2026-05-07 20:41 | 21.06247 | -59.85637 | 37158 ft | 522 kts | 65° |
| 2026-05-07 20:41 | 21.09396 | -59.78627 | 37167 ft | 523 kts | 65° |
| 2026-05-07 20:42 | 21.12513 | -59.71595 | 37161 ft | 522 kts | 65° |
| 2026-05-07 20:42 | 21.15610 | -59.64562 | 37160 ft | 522 kts | 66° |
| 2026-05-07 20:43 | 21.18680 | -59.57574 | 37157 ft | 522 kts | 66° |
| 2026-05-07 20:43 | 21.21772 | -59.50532 | 37163 ft | 523 kts | 66° |
| 2026-05-07 20:44 | 21.24864 | -59.43481 | 37165 ft | 523 kts | 66° |
| 2026-05-07 20:44 | 21.27955 | -59.36424 | 37167 ft | 523 kts | 66° |
| 2026-05-07 20:45 | 21.31041 | -59.29369 | 37161 ft | 523 kts | 66° |
| 2026-05-07 20:45 | 21.34124 | -59.22311 | 37162 ft | 523 kts | 66° |
| 2026-05-07 20:46 | 21.37205 | -59.15246 | 37159 ft | 523 kts | 66° |
| 2026-05-07 20:46 | 21.40283 | -59.08179 | 37161 ft | 523 kts | 66° |
| 2026-05-07 20:47 | 21.42838 | -59.02306 | 37157 ft | 523 kts | 66° |
| 2026-05-07 20:47 | 21.45912 | -58.95232 | 37169 ft | 523 kts | 66° |
| 2026-05-07 20:48 | 21.48985 | -58.88149 | 37165 ft | 523 kts | 66° |
| 2026-05-07 20:48 | 21.52053 | -58.81067 | 37174 ft | 523 kts | 66° |
| 2026-05-07 20:49 | 21.55120 | -58.73980 | 37170 ft | 523 kts | 66° |
| 2026-05-07 20:49 | 21.58181 | -58.66894 | 37172 ft | 523 kts | 66° |
| 2026-05-07 20:50 | 21.61241 | -58.59802 | 37166 ft | 523 kts | 66° |
| 2026-05-07 20:50 | 21.64297 | -58.52707 | 37164 ft | 523 kts | 66° |
| 2026-05-07 20:51 | 21.67352 | -58.45606 | 37159 ft | 523 kts | 66° |
| 2026-05-07 20:51 | 21.70403 | -58.38505 | 37164 ft | 523 kts | 66° |
| 2026-05-07 20:52 | 21.73450 | -58.31404 | 37168 ft | 523 kts | 67° |
| 2026-05-07 20:52 | 21.76495 | -58.24295 | 37171 ft | 523 kts | 67° |
| 2026-05-07 20:53 | 21.79537 | -58.17187 | 37165 ft | 523 kts | 67° |
| 2026-05-07 20:53 | 21.82574 | -58.10076 | 37172 ft | 523 kts | 67° |
| 2026-05-07 20:54 | 21.85609 | -58.02962 | 37169 ft | 523 kts | 67° |
| 2026-05-07 20:54 | 21.88640 | -57.95846 | 37353 ft | 523 kts | 67° |
| 2026-05-07 20:54 | 21.90136 | -57.92329 | 37507 ft | 523 kts | 67° |
| 2026-05-07 20:55 | 21.91650 | -57.88769 | 37680 ft | 523 kts | 67° |
| 2026-05-07 20:55 | 21.93164 | -57.85207 | 37844 ft | 523 kts | 67° |
| 2026-05-07 20:55 | 21.94675 | -57.81651 | 37987 ft | 523 kts | 67° |
| 2026-05-07 20:55 | 21.96186 | -57.78089 | 38154 ft | 523 kts | 67° |
| 2026-05-07 20:56 | 21.97696 | -57.74528 | 38305 ft | 523 kts | 67° |
| 2026-05-07 20:56 | 21.99206 | -57.70964 | 38444 ft | 523 kts | 67° |
| 2026-05-07 20:56 | 22.00714 | -57.67405 | 38591 ft | 523 kts | 68° |
| 2026-05-07 20:56 | 22.02223 | -57.63838 | 38705 ft | 522 kts | 68° |
| 2026-05-07 20:57 | 22.03729 | -57.60277 | 38859 ft | 522 kts | 68° |
| 2026-05-07 20:57 | 22.05235 | -57.56712 | 38964 ft | 522 kts | 68° |
| 2026-05-07 20:57 | 22.06738 | -57.53154 | 39101 ft | 522 kts | 68° |
| 2026-05-07 20:58 | 22.09746 | -57.46019 | 39170 ft | 523 kts | 68° |
| 2026-05-07 20:58 | 22.12749 | -57.38887 | 39168 ft | 522 kts | 68° |
| 2026-05-07 20:59 | 22.15747 | -57.31759 | 39170 ft | 522 kts | 68° |
| 2026-05-07 20:59 | 22.18743 | -57.24623 | 39170 ft | 522 kts | 68° |
| 2026-05-07 21:00 | 22.21736 | -57.17483 | 39170 ft | 522 kts | 68° |
| 2026-05-07 21:00 | 22.24726 | -57.10340 | 39163 ft | 522 kts | 68° |
| 2026-05-07 21:01 | 22.27713 | -57.03196 | 39170 ft | 523 kts | 68° |
| 2026-05-07 21:01 | 22.30700 | -56.96039 | 39170 ft | 523 kts | 68° |
| 2026-05-07 21:02 | 22.33686 | -56.88875 | 39167 ft | 523 kts | 68° |
| 2026-05-07 21:02 | 22.36646 | -56.81763 | 39166 ft | 523 kts | 68° |
| 2026-05-07 21:03 | 22.39628 | -56.74583 | 39170 ft | 524 kts | 68° |
| 2026-05-07 21:03 | 22.42612 | -56.67391 | 39172 ft | 524 kts | 68° |
| 2026-05-07 21:04 | 22.45589 | -56.60206 | 39170 ft | 524 kts | 68° |
| 2026-05-07 21:04 | 22.48564 | -56.53016 | 39167 ft | 524 kts | 68° |
| 2026-05-07 21:05 | 22.51541 | -56.45808 | 39170 ft | 525 kts | 68° |
| 2026-05-07 21:05 | 22.54518 | -56.38590 | 39170 ft | 525 kts | 68° |
| 2026-05-07 21:06 | 22.57491 | -56.31372 | 39175 ft | 525 kts | 68° |
| 2026-05-07 21:06 | 22.60460 | -56.24150 | 39176 ft | 526 kts | 68° |
| 2026-05-07 21:07 | 22.63432 | -56.16913 | 39176 ft | 526 kts | 68° |
| 2026-05-07 21:07 | 22.66399 | -56.09675 | 39176 ft | 526 kts | 68° |
| 2026-05-07 21:08 | 22.69365 | -56.02428 | 39176 ft | 526 kts | 68° |
| 2026-05-07 21:08 | 22.72326 | -55.95183 | 39173 ft | 526 kts | 68° |
| 2026-05-07 21:09 | 22.75266 | -55.87978 | 39176 ft | 526 kts | 69° |
| 2026-05-07 21:09 | 22.78220 | -55.80728 | 39176 ft | 526 kts | 69° |
| 2026-05-07 21:10 | 22.81167 | -55.73483 | 39175 ft | 526 kts | 69° |
| 2026-05-07 21:10 | 22.84118 | -55.66216 | 39176 ft | 527 kts | 69° |
| 2026-05-07 21:11 | 22.87066 | -55.58948 | 39176 ft | 527 kts | 69° |
| 2026-05-07 21:11 | 22.91481 | -55.48040 | 39175 ft | 527 kts | 69° |
| 2026-05-07 21:12 | 22.94421 | -55.40763 | 39176 ft | 527 kts | 69° |
| 2026-05-07 21:12 | 22.97360 | -55.33477 | 39176 ft | 527 kts | 69° |
| 2026-05-07 21:13 | 23.00295 | -55.26189 | 39164 ft | 527 kts | 69° |
| 2026-05-07 21:13 | 23.03224 | -55.18904 | 39178 ft | 527 kts | 69° |
| 2026-05-07 21:14 | 23.06151 | -55.11614 | 39178 ft | 526 kts | 69° |
| 2026-05-07 21:14 | 23.09073 | -55.04323 | 39192 ft | 527 kts | 69° |
| 2026-05-07 21:15 | 23.11993 | -54.97025 | 39174 ft | 527 kts | 69° |
| 2026-05-07 21:15 | 23.14906 | -54.89735 | 39176 ft | 526 kts | 69° |
| 2026-05-07 21:16 | 23.17815 | -54.82443 | 39176 ft | 526 kts | 69° |
| 2026-05-07 21:16 | 23.20719 | -54.75150 | 39164 ft | 526 kts | 69° |
| 2026-05-07 21:17 | 23.23616 | -54.67867 | 39175 ft | 524 kts | 69° |
| 2026-05-07 21:17 | 23.26483 | -54.60644 | 39175 ft | 523 kts | 69° |
| 2026-05-07 21:18 | 23.29364 | -54.53375 | 39178 ft | 524 kts | 69° |
| 2026-05-07 21:18 | 23.32243 | -54.46100 | 39174 ft | 523 kts | 69° |
| 2026-05-07 21:19 | 23.35108 | -54.38849 | 39175 ft | 521 kts | 69° |
| 2026-05-07 21:19 | 23.37967 | -54.31602 | 39175 ft | 521 kts | 69° |
| 2026-05-07 21:20 | 23.40822 | -54.24353 | 39176 ft | 521 kts | 69° |
| 2026-05-07 21:20 | 23.43672 | -54.17104 | 39178 ft | 521 kts | 69° |
| 2026-05-07 21:21 | 23.46520 | -54.09851 | 39175 ft | 520 kts | 69° |
| 2026-05-07 21:21 | 23.49361 | -54.02604 | 39173 ft | 520 kts | 69° |
| 2026-05-07 21:22 | 23.52198 | -53.95353 | 39174 ft | 520 kts | 69° |
| 2026-05-07 21:22 | 23.55024 | -53.88120 | 39174 ft | 518 kts | 69° |
| 2026-05-07 21:23 | 23.57847 | -53.80884 | 39174 ft | 519 kts | 69° |
| 2026-05-07 21:23 | 23.60668 | -53.73639 | 39161 ft | 519 kts | 69° |
| 2026-05-07 21:24 | 23.63483 | -53.66398 | 39175 ft | 518 kts | 69° |
| 2026-05-07 21:24 | 23.66291 | -53.59163 | 39172 ft | 518 kts | 69° |
| 2026-05-07 21:25 | 23.69076 | -53.51976 | 39173 ft | 518 kts | 69° |
| 2026-05-07 21:25 | 23.71878 | -53.44736 | 39183 ft | 518 kts | 69° |
| 2026-05-07 21:26 | 23.74677 | -53.37490 | 39176 ft | 518 kts | 69° |
| 2026-05-07 21:26 | 23.77475 | -53.30233 | 39176 ft | 519 kts | 69° |
| 2026-05-07 21:27 | 23.80269 | -53.22978 | 39172 ft | 518 kts | 69° |
| 2026-05-07 21:27 | 23.83055 | -53.15730 | 39175 ft | 517 kts | 69° |
| 2026-05-07 21:28 | 23.85835 | -53.08484 | 39175 ft | 517 kts | 69° |
| 2026-05-07 21:28 | 23.88613 | -53.01236 | 39179 ft | 518 kts | 69° |
| 2026-05-07 21:29 | 23.91390 | -52.93975 | 39178 ft | 517 kts | 69° |
| 2026-05-07 21:29 | 23.94158 | -52.86727 | 39178 ft | 516 kts | 69° |
| 2026-05-07 21:30 | 23.96918 | -52.79486 | 39178 ft | 516 kts | 69° |
| 2026-05-07 21:30 | 23.99655 | -52.72295 | 39175 ft | 515 kts | 69° |
| 2026-05-07 21:31 | 24.02401 | -52.65068 | 39177 ft | 515 kts | 69° |
| 2026-05-07 21:31 | 24.05145 | -52.57834 | 39178 ft | 515 kts | 69° |
| 2026-05-07 21:32 | 24.07888 | -52.50590 | 39174 ft | 515 kts | 69° |
| 2026-05-07 21:32 | 24.10624 | -52.43354 | 39176 ft | 514 kts | 69° |
| 2026-05-07 21:33 | 24.13355 | -52.36119 | 39178 ft | 514 kts | 69° |
| 2026-05-07 21:33 | 24.16082 | -52.28880 | 39182 ft | 514 kts | 69° |
| 2026-05-07 21:34 | 24.18807 | -52.21638 | 39178 ft | 514 kts | 69° |
| 2026-05-07 21:34 | 24.21526 | -52.14397 | 39178 ft | 514 kts | 69° |
| 2026-05-07 21:35 | 24.24241 | -52.07153 | 39178 ft | 514 kts | 69° |
| 2026-05-07 21:35 | 24.26953 | -51.99908 | 39176 ft | 513 kts | 69° |
| 2026-05-07 21:36 | 24.29658 | -51.92668 | 39188 ft | 513 kts | 69° |
| 2026-05-07 21:36 | 24.32360 | -51.85423 | 39178 ft | 514 kts | 70° |
| 2026-05-07 21:37 | 24.34606 | -51.79393 | 39172 ft | 514 kts | 69° |
| 2026-05-07 21:37 | 24.37304 | -51.72138 | 39179 ft | 513 kts | 69° |
| 2026-05-07 21:38 | 24.40433 | -51.63707 | 39178 ft | 513 kts | 69° |
| 2026-05-07 21:38 | 24.42685 | -51.57629 | 39178 ft | 513 kts | 69° |
| 2026-05-07 21:39 | 24.45370 | -51.50371 | 39178 ft | 513 kts | 69° |
| 2026-05-07 21:39 | 24.48053 | -51.43107 | 39179 ft | 514 kts | 70° |
| 2026-05-07 21:40 | 24.50732 | -51.35840 | 39178 ft | 513 kts | 70° |
| 2026-05-07 21:40 | 24.53407 | -51.28572 | 39177 ft | 513 kts | 69° |
| 2026-05-07 21:41 | 24.56077 | -51.21305 | 39176 ft | 513 kts | 69° |
| 2026-05-07 21:41 | 24.58725 | -51.14084 | 39179 ft | 513 kts | 70° |
| 2026-05-07 21:42 | 24.61393 | -51.06797 | 39178 ft | 514 kts | 70° |
| 2026-05-07 21:42 | 24.64058 | -50.99505 | 39181 ft | 514 kts | 70° |
| 2026-05-07 21:43 | 24.66719 | -50.92213 | 39181 ft | 514 kts | 70° |
| 2026-05-07 21:43 | 24.69376 | -50.84916 | 39177 ft | 514 kts | 70° |
| 2026-05-07 21:44 | 24.72029 | -50.77620 | 39181 ft | 513 kts | 70° |
| 2026-05-07 21:44 | 24.74675 | -50.70329 | 39178 ft | 513 kts | 70° |
| 2026-05-07 21:45 | 24.77317 | -50.63036 | 39183 ft | 513 kts | 70° |
| 2026-05-07 21:45 | 24.79954 | -50.55746 | 39180 ft | 512 kts | 70° |
| 2026-05-07 21:46 | 24.82585 | -50.48459 | 39175 ft | 512 kts | 70° |
| 2026-05-07 21:46 | 24.85214 | -50.41165 | 39168 ft | 513 kts | 70° |
| 2026-05-07 21:47 | 24.87840 | -50.33863 | 39174 ft | 513 kts | 70° |
| 2026-05-07 21:47 | 24.90461 | -50.26565 | 39176 ft | 512 kts | 70° |
| 2026-05-07 21:48 | 24.93077 | -50.19268 | 39169 ft | 512 kts | 70° |
| 2026-05-07 21:48 | 24.95690 | -50.11969 | 39173 ft | 512 kts | 70° |
| 2026-05-07 21:49 | 24.98296 | -50.04673 | 39176 ft | 512 kts | 70° |
| 2026-05-07 21:49 | 25.01484 | -49.97659 | 39179 ft | 513 kts | 58° |
| 2026-05-07 21:50 | 25.05343 | -49.91108 | 39184 ft | 513 kts | 56° |
| 2026-05-07 21:50 | 25.09348 | -49.84605 | 39175 ft | 512 kts | 56° |
| 2026-05-07 21:51 | 25.13358 | -49.78108 | 39177 ft | 513 kts | 56° |
| 2026-05-07 21:51 | 25.17359 | -49.71582 | 39177 ft | 513 kts | 56° |
| 2026-05-07 21:52 | 25.21342 | -49.65056 | 39178 ft | 512 kts | 56° |
| 2026-05-07 21:52 | 25.25319 | -49.58525 | 39178 ft | 512 kts | 56° |
| 2026-05-07 21:53 | 25.29292 | -49.51992 | 39173 ft | 513 kts | 56° |
| 2026-05-07 21:53 | 25.33268 | -49.45446 | 39176 ft | 512 kts | 56° |
| 2026-05-07 21:54 | 25.37238 | -49.38904 | 39178 ft | 512 kts | 56° |
| 2026-05-07 21:54 | 25.41201 | -49.32362 | 39176 ft | 512 kts | 56° |
| 2026-05-07 21:55 | 25.45166 | -49.25808 | 39181 ft | 512 kts | 56° |
| 2026-05-07 21:55 | 25.49125 | -49.19254 | 39184 ft | 512 kts | 56° |
| 2026-05-07 21:56 | 25.53082 | -49.12697 | 39181 ft | 512 kts | 56° |
| 2026-05-07 21:56 | 25.57036 | -49.06133 | 39190 ft | 512 kts | 56° |
| 2026-05-07 21:57 | 25.60984 | -48.99571 | 39184 ft | 512 kts | 56° |
| 2026-05-07 21:57 | 25.64904 | -48.93047 | 39184 ft | 512 kts | 56° |
| 2026-05-07 21:58 | 25.68849 | -48.86471 | 39184 ft | 512 kts | 56° |
| 2026-05-07 21:58 | 25.72790 | -48.79893 | 39190 ft | 512 kts | 56° |
| 2026-05-07 21:59 | 25.76735 | -48.73299 | 39181 ft | 514 kts | 56° |
| 2026-05-07 21:59 | 25.80685 | -48.66687 | 39184 ft | 514 kts | 56° |
| 2026-05-07 22:00 | 25.84628 | -48.60075 | 39186 ft | 513 kts | 56° |
| 2026-05-07 22:00 | 25.88559 | -48.53476 | 39185 ft | 513 kts | 56° |
| 2026-05-07 22:01 | 25.92494 | -48.46862 | 39184 ft | 514 kts | 56° |
| 2026-05-07 22:01 | 25.96428 | -48.40239 | 39186 ft | 513 kts | 56° |
| 2026-05-07 22:02 | 26.00356 | -48.33617 | 39187 ft | 512 kts | 56° |
| 2026-05-07 22:02 | 26.04277 | -48.26998 | 39187 ft | 513 kts | 56° |
| 2026-05-07 22:03 | 26.08175 | -48.20407 | 39183 ft | 513 kts | 56° |
| 2026-05-07 22:03 | 26.12091 | -48.13776 | 39184 ft | 512 kts | 56° |
| 2026-05-07 22:04 | 26.15999 | -48.07149 | 39184 ft | 512 kts | 56° |
| 2026-05-07 22:04 | 26.19902 | -48.00521 | 39181 ft | 512 kts | 56° |
| 2026-05-07 22:05 | 26.23800 | -47.93893 | 39187 ft | 511 kts | 56° |
| 2026-05-07 22:05 | 26.27691 | -47.87266 | 39184 ft | 511 kts | 56° |
| 2026-05-07 22:06 | 26.31579 | -47.80634 | 39188 ft | 511 kts | 56° |
| 2026-05-07 22:06 | 26.35468 | -47.73991 | 39184 ft | 511 kts | 56° |
| 2026-05-07 22:07 | 26.39350 | -47.67351 | 39184 ft | 511 kts | 56° |
| 2026-05-07 22:07 | 26.43227 | -47.60710 | 39189 ft | 511 kts | 56° |
| 2026-05-07 22:08 | 26.47104 | -47.54059 | 39189 ft | 511 kts | 56° |
| 2026-05-07 22:08 | 26.50975 | -47.47409 | 39189 ft | 511 kts | 56° |
| 2026-05-07 22:09 | 26.54815 | -47.40802 | 39189 ft | 511 kts | 56° |
| 2026-05-07 22:09 | 26.58679 | -47.34143 | 39197 ft | 510 kts | 56° |
| 2026-05-07 22:10 | 26.62539 | -47.27482 | 39192 ft | 511 kts | 56° |
| 2026-05-07 22:10 | 26.66398 | -47.20813 | 39193 ft | 511 kts | 56° |
| 2026-05-07 22:11 | 26.70253 | -47.14141 | 39192 ft | 510 kts | 56° |
| 2026-05-07 22:11 | 26.74100 | -47.07474 | 39195 ft | 510 kts | 56° |
| 2026-05-07 22:12 | 26.77947 | -47.00795 | 39195 ft | 510 kts | 56° |
| 2026-05-07 22:12 | 26.81791 | -46.94112 | 39195 ft | 510 kts | 56° |
| 2026-05-07 22:13 | 26.85625 | -46.87435 | 39198 ft | 510 kts | 56° |
| 2026-05-07 22:13 | 26.89463 | -46.80745 | 39200 ft | 511 kts | 56° |
| 2026-05-07 22:14 | 26.93303 | -46.74038 | 39200 ft | 511 kts | 56° |
| 2026-05-07 22:14 | 26.97140 | -46.67327 | 39195 ft | 511 kts | 56° |
| 2026-05-07 22:15 | 27.00975 | -46.60610 | 39198 ft | 512 kts | 56° |
| 2026-05-07 22:15 | 27.04812 | -46.53878 | 39199 ft | 512 kts | 56° |
| 2026-05-07 22:16 | 27.08615 | -46.47196 | 39200 ft | 511 kts | 56° |
| 2026-05-07 22:16 | 27.12463 | -46.40425 | 39207 ft | 511 kts | 56° |
| 2026-05-07 22:17 | 27.16265 | -46.33726 | 39202 ft | 512 kts | 56° |
| 2026-05-07 22:17 | 27.20081 | -46.26990 | 39203 ft | 511 kts | 56° |
| 2026-05-07 22:18 | 27.25798 | -46.16880 | 39201 ft | 511 kts | 56° |
| 2026-05-07 22:19 | 27.29607 | -46.10132 | 39203 ft | 511 kts | 56° |
| 2026-05-07 22:19 | 27.33409 | -46.03384 | 39206 ft | 511 kts | 56° |
| 2026-05-07 22:20 | 27.37207 | -45.96635 | 39212 ft | 511 kts | 56° |
| 2026-05-07 22:20 | 27.41003 | -45.89879 | 39208 ft | 511 kts | 56° |
| 2026-05-07 22:21 | 27.44797 | -45.83116 | 39205 ft | 511 kts | 56° |
| 2026-05-07 22:21 | 27.48586 | -45.76350 | 39209 ft | 511 kts | 56° |
| 2026-05-07 22:22 | 27.52369 | -45.69585 | 39211 ft | 510 kts | 56° |
| 2026-05-07 22:22 | 27.56142 | -45.62825 | 39211 ft | 509 kts | 56° |
| 2026-05-07 22:23 | 27.59912 | -45.56065 | 39209 ft | 509 kts | 56° |
| 2026-05-07 22:23 | 27.63647 | -45.49353 | 39212 ft | 509 kts | 56° |
| 2026-05-07 22:24 | 27.67408 | -45.42588 | 39211 ft | 509 kts | 56° |
| 2026-05-07 22:24 | 27.71169 | -45.35810 | 39208 ft | 509 kts | 56° |
| 2026-05-07 22:25 | 27.74922 | -45.29034 | 39221 ft | 508 kts | 56° |
| 2026-05-07 22:25 | 27.78670 | -45.22259 | 39214 ft | 509 kts | 56° |
| 2026-05-07 22:26 | 27.82419 | -45.15470 | 39216 ft | 509 kts | 56° |
| 2026-05-07 22:26 | 27.86161 | -45.08684 | 39216 ft | 508 kts | 56° |
| 2026-05-07 22:27 | 27.89899 | -45.01894 | 39216 ft | 509 kts | 56° |
| 2026-05-07 22:27 | 27.93639 | -44.95089 | 39215 ft | 509 kts | 56° |
| 2026-05-07 22:28 | 27.97374 | -44.88283 | 39217 ft | 509 kts | 56° |
| 2026-05-07 22:28 | 28.00475 | -44.82625 | 39221 ft | 509 kts | 56° |
| 2026-05-07 22:29 | 28.04810 | -44.74701 | 39222 ft | 509 kts | 56° |
| 2026-05-07 22:29 | 28.08539 | -44.67874 | 39223 ft | 509 kts | 56° |
| 2026-05-07 22:30 | 28.11654 | -44.62161 | 39222 ft | 509 kts | 56° |
| 2026-05-07 22:30 | 28.15373 | -44.55333 | 39219 ft | 509 kts | 56° |
| 2026-05-07 22:31 | 28.19061 | -44.48549 | 39223 ft | 509 kts | 56° |
| 2026-05-07 22:31 | 28.22774 | -44.41709 | 39230 ft | 509 kts | 56° |
| 2026-05-07 22:32 | 28.26478 | -44.34874 | 39210 ft | 509 kts | 56° |
| 2026-05-07 22:32 | 28.30179 | -44.28034 | 39223 ft | 508 kts | 56° |
| 2026-05-07 22:33 | 28.33874 | -44.21196 | 39207 ft | 508 kts | 56° |
| 2026-05-07 22:33 | 28.37565 | -44.14351 | 39230 ft | 508 kts | 56° |
| 2026-05-07 22:34 | 28.41251 | -44.07506 | 39230 ft | 508 kts | 56° |
| 2026-05-07 22:34 | 28.44932 | -44.00659 | 39233 ft | 508 kts | 56° |
| 2026-05-07 22:35 | 28.48611 | -43.93805 | 39232 ft | 508 kts | 56° |
| 2026-05-07 22:35 | 28.52293 | -43.86934 | 39221 ft | 509 kts | 56° |
| 2026-05-07 22:36 | 28.55972 | -43.80056 | 39229 ft | 509 kts | 56° |
| 2026-05-07 22:36 | 28.59647 | -43.73174 | 39232 ft | 509 kts | 56° |
| 2026-05-07 22:37 | 28.63291 | -43.66340 | 39232 ft | 509 kts | 56° |
| 2026-05-07 22:37 | 28.66958 | -43.59453 | 39231 ft | 508 kts | 56° |
| 2026-05-07 22:38 | 28.70620 | -43.52563 | 39232 ft | 508 kts | 56° |
| 2026-05-07 22:38 | 28.74277 | -43.45670 | 39238 ft | 508 kts | 56° |
| 2026-05-07 22:39 | 28.77930 | -43.38773 | 39231 ft | 508 kts | 56° |
| 2026-05-07 22:39 | 28.81578 | -43.31875 | 39234 ft | 508 kts | 56° |
| 2026-05-07 22:40 | 28.85223 | -43.24971 | 39241 ft | 508 kts | 56° |
| 2026-05-07 22:40 | 28.88863 | -43.18062 | 39241 ft | 508 kts | 56° |
| 2026-05-07 22:41 | 28.92500 | -43.11151 | 39239 ft | 508 kts | 56° |
| 2026-05-07 22:41 | 28.96134 | -43.04234 | 39235 ft | 508 kts | 56° |
| 2026-05-07 22:42 | 28.99765 | -42.97311 | 39238 ft | 508 kts | 56° |
| 2026-05-07 22:42 | 29.03388 | -42.90389 | 39238 ft | 507 kts | 56° |
| 2026-05-07 22:43 | 29.07007 | -42.83466 | 39240 ft | 507 kts | 56° |
| 2026-05-07 22:43 | 29.10620 | -42.76540 | 39236 ft | 507 kts | 56° |
| 2026-05-07 22:44 | 29.14231 | -42.69608 | 39243 ft | 507 kts | 56° |
| 2026-05-07 22:44 | 29.17840 | -42.62669 | 39242 ft | 507 kts | 56° |
| 2026-05-07 22:45 | 29.21444 | -42.55727 | 39244 ft | 507 kts | 56° |
| 2026-05-07 22:45 | 29.25042 | -42.48784 | 39240 ft | 507 kts | 56° |
| 2026-05-07 22:46 | 29.28637 | -42.41836 | 39239 ft | 507 kts | 56° |
| 2026-05-07 22:46 | 29.32228 | -42.34883 | 39248 ft | 507 kts | 56° |
| 2026-05-07 22:47 | 29.35815 | -42.27926 | 39241 ft | 507 kts | 56° |
| 2026-05-07 22:47 | 29.39401 | -42.20961 | 39241 ft | 508 kts | 56° |
| 2026-05-07 22:48 | 29.42985 | -42.13985 | 39241 ft | 507 kts | 56° |
| 2026-05-07 22:48 | 29.46561 | -42.07013 | 39243 ft | 507 kts | 56° |
| 2026-05-07 22:49 | 29.50109 | -42.00084 | 39240 ft | 507 kts | 56° |
| 2026-05-07 22:49 | 29.53678 | -41.93104 | 39242 ft | 507 kts | 56° |
| 2026-05-07 22:50 | 29.57240 | -41.86124 | 39243 ft | 507 kts | 56° |
| 2026-05-07 22:50 | 29.60800 | -41.79137 | 39249 ft | 507 kts | 56° |
| 2026-05-07 22:51 | 29.64353 | -41.72151 | 39247 ft | 506 kts | 56° |
| 2026-05-07 22:51 | 29.67896 | -41.65170 | 39251 ft | 505 kts | 56° |
| 2026-05-07 22:52 | 29.71436 | -41.58187 | 39253 ft | 505 kts | 56° |
| 2026-05-07 22:52 | 29.74970 | -41.51200 | 39249 ft | 505 kts | 56° |
| 2026-05-07 22:53 | 29.78500 | -41.44211 | 39248 ft | 505 kts | 56° |
| 2026-05-07 22:53 | 29.82025 | -41.37220 | 39262 ft | 505 kts | 56° |
| 2026-05-07 22:54 | 29.85545 | -41.30225 | 39251 ft | 505 kts | 56° |
| 2026-05-07 22:54 | 29.89058 | -41.23233 | 39251 ft | 504 kts | 56° |
| 2026-05-07 22:55 | 29.92544 | -41.16282 | 39250 ft | 504 kts | 56° |
| 2026-05-07 22:55 | 29.96050 | -41.09280 | 39253 ft | 504 kts | 56° |
| 2026-05-07 22:56 | 29.99552 | -41.02272 | 39253 ft | 504 kts | 56° |
| 2026-05-07 22:56 | 30.03055 | -40.95252 | 39253 ft | 506 kts | 56° |
| 2026-05-07 22:57 | 30.06562 | -40.88210 | 39261 ft | 506 kts | 56° |
| 2026-05-07 22:57 | 30.10066 | -40.81158 | 39258 ft | 506 kts | 56° |
| 2026-05-07 22:58 | 30.13566 | -40.74103 | 39257 ft | 506 kts | 56° |
| 2026-05-07 22:58 | 30.17060 | -40.67050 | 39268 ft | 506 kts | 56° |
| 2026-05-07 22:59 | 30.20553 | -40.59986 | 39264 ft | 506 kts | 56° |
| 2026-05-07 22:59 | 30.24041 | -40.52919 | 39259 ft | 506 kts | 56° |
| 2026-05-07 23:00 | 30.27530 | -40.45836 | 39268 ft | 507 kts | 56° |
| 2026-05-07 23:00 | 30.31016 | -40.38749 | 39259 ft | 507 kts | 56° |
| 2026-05-07 23:01 | 30.34497 | -40.31659 | 39259 ft | 507 kts | 56° |
| 2026-05-07 23:01 | 30.37974 | -40.24561 | 39275 ft | 507 kts | 56° |
| 2026-05-07 23:02 | 30.41425 | -40.17507 | 39262 ft | 507 kts | 56° |
| 2026-05-07 23:02 | 30.44897 | -40.10396 | 39259 ft | 507 kts | 56° |
| 2026-05-07 23:03 | 30.48367 | -40.03275 | 39260 ft | 507 kts | 56° |
| 2026-05-07 23:03 | 30.51206 | -39.95741 | 39260 ft | 512 kts | 66° |
| 2026-05-07 23:04 | 30.53587 | -39.87937 | 39263 ft | 514 kts | 68° |
| 2026-05-07 23:04 | 30.55877 | -39.80081 | 39271 ft | 514 kts | 68° |
| 2026-05-07 23:05 | 30.58164 | -39.72220 | 39262 ft | 514 kts | 68° |
| 2026-05-07 23:05 | 30.60459 | -39.64367 | 39263 ft | 514 kts | 68° |
| 2026-05-07 23:06 | 30.62759 | -39.56507 | 39275 ft | 514 kts | 68° |
| 2026-05-07 23:06 | 30.65056 | -39.48641 | 39265 ft | 514 kts | 68° |
| 2026-05-07 23:07 | 30.67348 | -39.40773 | 39265 ft | 514 kts | 68° |
| 2026-05-07 23:07 | 30.69635 | -39.32898 | 39267 ft | 514 kts | 68° |
| 2026-05-07 23:08 | 30.71918 | -39.25016 | 39264 ft | 515 kts | 68° |
| 2026-05-07 23:08 | 30.74196 | -39.17128 | 39264 ft | 515 kts | 68° |
| 2026-05-07 23:09 | 30.76471 | -39.09234 | 39273 ft | 515 kts | 68° |
| 2026-05-07 23:09 | 30.78739 | -39.01342 | 39268 ft | 515 kts | 68° |
| 2026-05-07 23:10 | 30.81005 | -38.93439 | 39252 ft | 515 kts | 68° |
| 2026-05-07 23:10 | 30.83249 | -38.85591 | 39264 ft | 514 kts | 68° |
| 2026-05-07 23:11 | 30.85503 | -38.77687 | 39266 ft | 514 kts | 68° |
| 2026-05-07 23:11 | 30.87750 | -38.69788 | 39265 ft | 514 kts | 68° |
| 2026-05-07 23:12 | 30.89992 | -38.61886 | 39266 ft | 514 kts | 68° |
| 2026-05-07 23:12 | 30.92230 | -38.53979 | 39265 ft | 514 kts | 68° |
| 2026-05-07 23:13 | 30.94462 | -38.46068 | 39266 ft | 514 kts | 68° |
| 2026-05-07 23:13 | 30.96691 | -38.38149 | 39272 ft | 514 kts | 68° |
| 2026-05-07 23:14 | 30.98915 | -38.30226 | 39262 ft | 515 kts | 68° |
| 2026-05-07 23:14 | 31.01137 | -38.22292 | 39268 ft | 515 kts | 68° |
| 2026-05-07 23:15 | 31.03353 | -38.14358 | 39271 ft | 515 kts | 67° |
| 2026-05-07 23:15 | 31.05553 | -38.06459 | 39257 ft | 516 kts | 67° |
| 2026-05-07 23:16 | 31.07764 | -37.98503 | 39272 ft | 516 kts | 67° |
| 2026-05-07 23:16 | 31.09971 | -37.90535 | 39276 ft | 516 kts | 67° |
| 2026-05-07 23:17 | 31.12172 | -37.82567 | 39263 ft | 516 kts | 67° |
| 2026-05-07 23:17 | 31.14369 | -37.74593 | 39261 ft | 516 kts | 67° |
| 2026-05-07 23:18 | 31.16560 | -37.66621 | 39264 ft | 515 kts | 66° |
| 2026-05-07 23:18 | 31.18742 | -37.58658 | 39265 ft | 514 kts | 66° |
| 2026-05-07 23:19 | 31.20917 | -37.50702 | 39266 ft | 514 kts | 67° |
| 2026-05-07 23:19 | 31.22721 | -37.44085 | 39264 ft | 514 kts | 66° |
| 2026-05-07 23:20 | 31.24882 | -37.36137 | 39262 ft | 513 kts | 66° |
| 2026-05-07 23:20 | 31.27039 | -37.28188 | 39260 ft | 513 kts | 66° |
| 2026-05-07 23:21 | 31.29190 | -37.20237 | 39265 ft | 513 kts | 66° |
| 2026-05-07 23:21 | 31.31337 | -37.12277 | 39262 ft | 513 kts | 66° |
| 2026-05-07 23:22 | 31.33482 | -37.04303 | 39262 ft | 514 kts | 66° |
| 2026-05-07 23:22 | 31.35621 | -36.96329 | 39263 ft | 514 kts | 66° |
| 2026-05-07 23:23 | 31.37756 | -36.88349 | 39260 ft | 514 kts | 66° |
| 2026-05-07 23:23 | 31.39886 | -36.80367 | 39260 ft | 514 kts | 66° |
| 2026-05-07 23:24 | 31.42011 | -36.72379 | 39267 ft | 514 kts | 66° |
| 2026-05-07 23:24 | 31.44130 | -36.64390 | 39257 ft | 513 kts | 66° |
| 2026-05-07 23:25 | 31.46243 | -36.56404 | 39257 ft | 514 kts | 66° |
| 2026-05-07 23:25 | 31.48353 | -36.48409 | 39257 ft | 514 kts | 66° |
| 2026-05-07 23:26 | 31.50458 | -36.40409 | 39257 ft | 514 kts | 66° |
| 2026-05-07 23:26 | 31.52557 | -36.32408 | 39257 ft | 514 kts | 66° |
| 2026-05-07 23:27 | 31.55697 | -36.20397 | 39258 ft | 513 kts | 66° |
| 2026-05-07 23:27 | 31.57768 | -36.12443 | 39257 ft | 513 kts | 66° |
| 2026-05-07 23:28 | 31.59848 | -36.04439 | 39253 ft | 513 kts | 67° |
| 2026-05-07 23:28 | 31.61922 | -35.96433 | 39251 ft | 513 kts | 67° |
| 2026-05-07 23:29 | 31.63988 | -35.88429 | 39250 ft | 512 kts | 67° |
| 2026-05-07 23:29 | 31.66049 | -35.80426 | 39246 ft | 512 kts | 67° |
| 2026-05-07 23:30 | 31.68105 | -35.72425 | 39255 ft | 512 kts | 67° |
| 2026-05-07 23:30 | 31.70152 | -35.64426 | 39244 ft | 511 kts | 67° |
| 2026-05-07 23:31 | 31.72193 | -35.56434 | 39246 ft | 511 kts | 67° |
| 2026-05-07 23:31 | 31.74229 | -35.48439 | 39258 ft | 511 kts | 67° |
| 2026-05-07 23:32 | 31.76258 | -35.40447 | 39253 ft | 510 kts | 67° |
| 2026-05-07 23:32 | 31.78281 | -35.32455 | 39243 ft | 510 kts | 67° |
| 2026-05-07 23:33 | 31.80299 | -35.24462 | 39266 ft | 510 kts | 67° |
| 2026-05-07 23:33 | 31.82309 | -35.16472 | 39244 ft | 509 kts | 67° |
| 2026-05-07 23:34 | 31.84312 | -35.08489 | 39243 ft | 509 kts | 67° |
| 2026-05-07 23:34 | 31.86310 | -35.00501 | 39243 ft | 509 kts | 68° |
| 2026-05-07 23:35 | 31.88304 | -34.92512 | 39240 ft | 509 kts | 68° |
| 2026-05-07 23:35 | 31.90290 | -34.84525 | 39242 ft | 509 kts | 68° |
| 2026-05-07 23:36 | 31.92273 | -34.76532 | 39242 ft | 509 kts | 68° |
| 2026-05-07 23:36 | 31.94236 | -34.68593 | 39240 ft | 508 kts | 68° |
| 2026-05-07 23:37 | 31.96206 | -34.60599 | 39238 ft | 508 kts | 68° |
| 2026-05-07 23:37 | 31.98172 | -34.52604 | 39236 ft | 508 kts | 68° |
| 2026-05-07 23:38 | 32.00131 | -34.44608 | 39241 ft | 508 kts | 68° |
| 2026-05-07 23:38 | 32.02085 | -34.36609 | 39230 ft | 508 kts | 68° |
| 2026-05-07 23:39 | 32.04035 | -34.28607 | 39232 ft | 508 kts | 68° |
| 2026-05-07 23:39 | 32.05980 | -34.20599 | 39247 ft | 508 kts | 68° |
| 2026-05-07 23:40 | 32.07920 | -34.12586 | 39230 ft | 508 kts | 68° |
| 2026-05-07 23:40 | 32.09854 | -34.04572 | 39233 ft | 508 kts | 68° |
| 2026-05-07 23:41 | 32.11784 | -33.96555 | 39227 ft | 508 kts | 68° |
| 2026-05-07 23:41 | 32.13709 | -33.88537 | 39229 ft | 508 kts | 68° |
| 2026-05-07 23:42 | 32.15629 | -33.80509 | 39230 ft | 508 kts | 68° |
| 2026-05-07 23:42 | 32.17544 | -33.72479 | 39231 ft | 508 kts | 68° |
| 2026-05-07 23:43 | 32.19452 | -33.64449 | 39228 ft | 508 kts | 68° |
| 2026-05-07 23:43 | 32.21359 | -33.56406 | 39227 ft | 509 kts | 68° |
| 2026-05-07 23:44 | 32.23260 | -33.48364 | 39226 ft | 509 kts | 68° |
| 2026-05-07 23:44 | 32.25156 | -33.40315 | 39226 ft | 509 kts | 68° |
| 2026-05-07 23:45 | 32.27048 | -33.32260 | 39222 ft | 509 kts | 68° |
| 2026-05-07 23:45 | 32.28936 | -33.24194 | 39217 ft | 509 kts | 68° |
| 2026-05-07 23:46 | 32.30817 | -33.16132 | 39215 ft | 509 kts | 68° |
| 2026-05-07 23:46 | 32.32693 | -33.08063 | 39221 ft | 509 kts | 68° |
| 2026-05-07 23:47 | 32.34566 | -32.99987 | 39219 ft | 509 kts | 68° |
| 2026-05-07 23:47 | 32.36435 | -32.91905 | 39217 ft | 509 kts | 68° |
| 2026-05-07 23:48 | 32.38285 | -32.83877 | 39218 ft | 509 kts | 68° |
| 2026-05-07 23:48 | 32.40142 | -32.75791 | 39212 ft | 509 kts | 68° |
| 2026-05-07 23:49 | 32.41994 | -32.67703 | 39208 ft | 509 kts | 68° |
| 2026-05-07 23:49 | 32.43842 | -32.59605 | 39221 ft | 510 kts | 68° |
| 2026-05-07 23:50 | 32.45685 | -32.51507 | 39210 ft | 510 kts | 68° |
| 2026-05-07 23:50 | 32.47523 | -32.43401 | 39211 ft | 510 kts | 68° |
| 2026-05-07 23:51 | 32.49355 | -32.35295 | 39209 ft | 510 kts | 68° |
| 2026-05-07 23:51 | 32.51184 | -32.27177 | 39208 ft | 510 kts | 68° |
| 2026-05-07 23:52 | 32.53011 | -32.19042 | 39209 ft | 511 kts | 68° |
| 2026-05-07 23:52 | 32.54833 | -32.10903 | 39203 ft | 511 kts | 68° |
| 2026-05-07 23:53 | 32.56650 | -32.02756 | 39202 ft | 512 kts | 68° |
| 2026-05-07 23:53 | 32.58464 | -31.94598 | 39200 ft | 511 kts | 69° |
| 2026-05-07 23:54 | 32.60269 | -31.86450 | 39199 ft | 511 kts | 69° |
| 2026-05-07 23:54 | 32.62070 | -31.78301 | 39217 ft | 511 kts | 68° |
| 2026-05-07 23:55 | 32.63869 | -31.70135 | 39197 ft | 512 kts | 69° |
| 2026-05-07 23:55 | 32.65664 | -31.61952 | 39195 ft | 513 kts | 69° |
| 2026-05-07 23:56 | 32.67455 | -31.53763 | 39195 ft | 513 kts | 69° |
| 2026-05-07 23:56 | 32.69241 | -31.45567 | 39193 ft | 514 kts | 69° |
| 2026-05-07 23:57 | 32.71016 | -31.37397 | 39191 ft | 515 kts | 69° |
| 2026-05-07 23:57 | 32.72797 | -31.29169 | 39189 ft | 515 kts | 69° |
| 2026-05-07 23:58 | 32.74572 | -31.20937 | 39189 ft | 515 kts | 69° |
| 2026-05-07 23:58 | 32.76343 | -31.12699 | 39184 ft | 515 kts | 69° |
| 2026-05-07 23:59 | 32.78109 | -31.04460 | 39187 ft | 515 kts | 69° |
| 2026-05-07 23:59 | 32.79869 | -30.96216 | 39208 ft | 515 kts | 69° |
| 2026-05-08 00:00 | 32.81629 | -30.87948 | 39187 ft | 517 kts | 69° |
| 2026-05-08 00:00 | 32.83386 | -30.79662 | 39186 ft | 517 kts | 69° |
| 2026-05-08 00:01 | 32.85139 | -30.71363 | 39186 ft | 517 kts | 69° |
| 2026-05-08 00:01 | 32.86887 | -30.63056 | 39186 ft | 518 kts | 69° |
| 2026-05-08 00:02 | 32.88636 | -30.54727 | 39183 ft | 519 kts | 69° |
| 2026-05-08 00:02 | 32.90379 | -30.46388 | 39177 ft | 520 kts | 69° |
| 2026-05-08 00:03 | 32.92118 | -30.38038 | 39192 ft | 520 kts | 69° |
| 2026-05-08 00:03 | 32.93854 | -30.29679 | 39176 ft | 521 kts | 69° |
| 2026-05-08 00:04 | 32.95585 | -30.21305 | 39175 ft | 521 kts | 69° |
| 2026-05-08 00:04 | 32.97312 | -30.12924 | 39172 ft | 521 kts | 69° |
| 2026-05-08 00:05 | 32.99034 | -30.04538 | 39176 ft | 522 kts | 69° |
| 2026-05-08 00:05 | 33.00455 | -29.97537 | 39176 ft | 523 kts | 69° |
| 2026-05-08 00:06 | 33.02092 | -29.89078 | 39164 ft | 524 kts | 70° |
| 2026-05-08 00:06 | 33.03704 | -29.80610 | 39192 ft | 525 kts | 70° |
| 2026-05-08 00:07 | 33.05323 | -29.72111 | 39172 ft | 527 kts | 70° |
| 2026-05-08 00:07 | 33.06946 | -29.63584 | 39167 ft | 527 kts | 70° |
| 2026-05-08 00:08 | 33.08565 | -29.55053 | 39161 ft | 527 kts | 70° |
| 2026-05-08 00:08 | 33.10181 | -29.46509 | 39158 ft | 530 kts | 70° |
| 2026-05-08 00:09 | 33.11800 | -29.37918 | 39158 ft | 531 kts | 70° |
| 2026-05-08 00:09 | 33.13412 | -29.29316 | 39163 ft | 531 kts | 71° |
| 2026-05-08 00:10 | 33.15009 | -29.20761 | 39165 ft | 533 kts | 71° |
| 2026-05-08 00:10 | 33.16624 | -29.12095 | 39152 ft | 536 kts | 71° |
| 2026-05-08 00:11 | 33.18234 | -29.03396 | 39149 ft | 537 kts | 71° |
| 2026-05-08 00:11 | 33.19839 | -28.94688 | 39178 ft | 537 kts | 71° |
| 2026-05-08 00:12 | 33.21448 | -28.85940 | 39147 ft | 541 kts | 71° |
| 2026-05-08 00:12 | 33.23058 | -28.77145 | 39143 ft | 543 kts | 71° |
| 2026-05-08 00:13 | 33.24661 | -28.68337 | 39143 ft | 543 kts | 72° |
| 2026-05-08 00:13 | 33.26261 | -28.59518 | 39144 ft | 545 kts | 72° |
| 2026-05-08 00:14 | 33.27867 | -28.50635 | 39143 ft | 548 kts | 72° |
| 2026-05-08 00:14 | 33.29468 | -28.41729 | 39139 ft | 548 kts | 72° |
| 2026-05-08 00:15 | 33.31060 | -28.32828 | 39137 ft | 546 kts | 72° |
| 2026-05-08 00:15 | 33.32637 | -28.23974 | 39138 ft | 544 kts | 72° |
| 2026-05-08 00:16 | 33.34206 | -28.15136 | 39138 ft | 543 kts | 72° |
| 2026-05-08 00:16 | 33.35771 | -28.06292 | 39161 ft | 544 kts | 73° |
| 2026-05-08 00:17 | 33.37339 | -27.97400 | 39134 ft | 548 kts | 73° |
| 2026-05-08 00:17 | 33.38906 | -27.88456 | 39131 ft | 550 kts | 73° |
| 2026-05-08 00:18 | 33.40466 | -27.79500 | 39131 ft | 550 kts | 73° |
| 2026-05-08 00:18 | 33.42023 | -27.70539 | 39128 ft | 551 kts | 73° |
| 2026-05-08 00:19 | 33.43569 | -27.61595 | 39127 ft | 553 kts | 73° |
| 2026-05-08 00:19 | 33.45120 | -27.52580 | 39127 ft | 553 kts | 73° |
| 2026-05-08 00:20 | 33.46664 | -27.43562 | 39119 ft | 554 kts | 73° |
| 2026-05-08 00:20 | 33.48208 | -27.34507 | 39125 ft | 556 kts | 73° |
| 2026-05-08 00:21 | 33.49749 | -27.25430 | 39126 ft | 556 kts | 73° |
| 2026-05-08 00:21 | 33.51282 | -27.16350 | 39131 ft | 556 kts | 74° |
| 2026-05-08 00:22 | 33.52812 | -27.07250 | 39112 ft | 557 kts | 74° |
| 2026-05-08 00:22 | 33.54337 | -26.98137 | 39110 ft | 558 kts | 74° |
| 2026-05-08 00:23 | 33.55857 | -26.89014 | 39115 ft | 558 kts | 74° |
| 2026-05-08 00:23 | 33.57370 | -26.79885 | 39114 ft | 559 kts | 74° |
| 2026-05-08 00:24 | 33.58879 | -26.70741 | 39113 ft | 559 kts | 74° |
| 2026-05-08 00:24 | 33.60381 | -26.61588 | 39105 ft | 559 kts | 74° |
| 2026-05-08 00:25 | 33.61878 | -26.52427 | 39106 ft | 560 kts | 74° |
| 2026-05-08 00:25 | 33.63369 | -26.43259 | 39108 ft | 560 kts | 74° |
| 2026-05-08 00:26 | 33.64853 | -26.34083 | 39105 ft | 560 kts | 75° |
| 2026-05-08 00:26 | 33.66331 | -26.24901 | 39119 ft | 560 kts | 75° |
| 2026-05-08 00:27 | 33.67804 | -26.15709 | 39103 ft | 560 kts | 75° |
| 2026-05-08 00:27 | 33.69269 | -26.06517 | 39100 ft | 561 kts | 75° |
| 2026-05-08 00:28 | 33.70728 | -25.97320 | 39098 ft | 561 kts | 75° |
| 2026-05-08 00:28 | 33.72180 | -25.88121 | 39101 ft | 561 kts | 75° |
| 2026-05-08 00:29 | 33.73626 | -25.78916 | 39099 ft | 561 kts | 75° |
| 2026-05-08 00:29 | 33.75064 | -25.69707 | 39097 ft | 561 kts | 75° |
| 2026-05-08 00:30 | 33.76497 | -25.60495 | 39097 ft | 561 kts | 75° |
| 2026-05-08 00:30 | 33.77922 | -25.51278 | 39095 ft | 561 kts | 75° |
| 2026-05-08 00:31 | 33.79340 | -25.42061 | 39094 ft | 561 kts | 76° |
| 2026-05-08 00:31 | 33.80742 | -25.32897 | 39092 ft | 561 kts | 76° |
| 2026-05-08 00:32 | 33.82148 | -25.23662 | 39088 ft | 561 kts | 76° |
| 2026-05-08 00:32 | 33.83547 | -25.14430 | 39089 ft | 561 kts | 76° |
| 2026-05-08 00:33 | 33.84938 | -25.05196 | 39089 ft | 561 kts | 76° |
| 2026-05-08 00:33 | 33.86322 | -24.95959 | 39090 ft | 561 kts | 76° |
| 2026-05-08 00:34 | 33.87698 | -24.86728 | 39056 ft | 560 kts | 76° |
| 2026-05-08 00:34 | 33.89069 | -24.77490 | 39086 ft | 561 kts | 76° |
| 2026-05-08 00:35 | 33.90432 | -24.68247 | 39096 ft | 561 kts | 77° |
| 2026-05-08 00:35 | 33.91788 | -24.59002 | 39083 ft | 561 kts | 77° |
| 2026-05-08 00:36 | 33.93137 | -24.49754 | 39083 ft | 561 kts | 77° |
| 2026-05-08 00:36 | 33.94479 | -24.40509 | 39084 ft | 561 kts | 77° |
| 2026-05-08 00:37 | 33.95813 | -24.31261 | 39088 ft | 560 kts | 77° |
| 2026-05-08 00:38 | 33.97800 | -24.17401 | 39085 ft | 560 kts | 77° |
| 2026-05-08 00:38 | 33.99116 | -24.08156 | 39091 ft | 560 kts | 77° |
| 2026-05-08 00:39 | 34.00424 | -23.98918 | 39087 ft | 559 kts | 78° |
| 2026-05-08 00:39 | 34.01723 | -23.89686 | 39084 ft | 558 kts | 78° |
| 2026-05-08 00:40 | 34.03015 | -23.80459 | 39084 ft | 558 kts | 78° |
| 2026-05-08 00:40 | 34.04301 | -23.71223 | 39089 ft | 558 kts | 78° |
| 2026-05-08 00:41 | 34.05577 | -23.61997 | 39081 ft | 558 kts | 78° |
| 2026-05-08 00:41 | 34.06847 | -23.52768 | 39084 ft | 558 kts | 78° |
| 2026-05-08 00:42 | 34.08111 | -23.43533 | 39083 ft | 558 kts | 78° |
| 2026-05-08 00:42 | 34.09366 | -23.34305 | 39080 ft | 557 kts | 79° |
| 2026-05-08 00:43 | 34.10614 | -23.25081 | 39080 ft | 557 kts | 79° |
| 2026-05-08 00:43 | 34.11854 | -23.15857 | 39081 ft | 557 kts | 79° |
| 2026-05-08 00:44 | 34.13088 | -23.06626 | 39088 ft | 557 kts | 79° |
| 2026-05-08 00:44 | 34.14313 | -22.97406 | 39083 ft | 556 kts | 79° |
| 2026-05-08 00:45 | 34.15531 | -22.88188 | 39082 ft | 556 kts | 79° |
| 2026-05-08 00:45 | 34.16742 | -22.78965 | 39078 ft | 556 kts | 79° |
| 2026-05-08 00:46 | 34.17945 | -22.69745 | 39074 ft | 556 kts | 80° |
| 2026-05-08 00:46 | 34.19134 | -22.60585 | 39080 ft | 556 kts | 80° |
| 2026-05-08 00:47 | 34.20323 | -22.51359 | 39077 ft | 556 kts | 80° |
| 2026-05-08 00:47 | 34.21506 | -22.42133 | 39083 ft | 556 kts | 80° |
| 2026-05-08 00:48 | 34.22680 | -22.32920 | 39077 ft | 554 kts | 80° |
| 2026-05-08 00:48 | 34.23845 | -22.23714 | 39073 ft | 554 kts | 80° |
| 2026-05-08 00:49 | 34.25004 | -22.14508 | 39075 ft | 554 kts | 81° |
| 2026-05-08 00:49 | 34.26155 | -22.05299 | 39074 ft | 554 kts | 81° |
| 2026-05-08 00:50 | 34.27301 | -21.96080 | 39072 ft | 554 kts | 81° |
| 2026-05-08 00:50 | 34.28439 | -21.86861 | 39072 ft | 554 kts | 81° |
| 2026-05-08 00:51 | 34.29571 | -21.77636 | 39072 ft | 554 kts | 81° |
| 2026-05-08 00:51 | 34.30694 | -21.68427 | 39067 ft | 553 kts | 81° |
| 2026-05-08 00:52 | 34.31809 | -21.59216 | 39070 ft | 553 kts | 81° |
| 2026-05-08 00:52 | 34.32731 | -21.51563 | 39070 ft | 553 kts | 81° |
| 2026-05-08 00:53 | 34.33834 | -21.42350 | 39071 ft | 553 kts | 81° |
| 2026-05-08 00:53 | 34.34928 | -21.33153 | 39067 ft | 552 kts | 81° |
| 2026-05-08 00:54 | 34.36014 | -21.23958 | 39067 ft | 552 kts | 82° |
| 2026-05-08 00:54 | 34.37094 | -21.14759 | 39067 ft | 552 kts | 82° |
| 2026-05-08 00:55 | 34.38166 | -21.05563 | 39056 ft | 551 kts | 82° |
| 2026-05-08 00:55 | 34.39227 | -20.96397 | 39062 ft | 549 kts | 82° |
| 2026-05-08 00:56 | 34.40280 | -20.87247 | 39067 ft | 549 kts | 82° |
| 2026-05-08 00:56 | 34.41326 | -20.78099 | 39072 ft | 548 kts | 82° |
| 2026-05-08 00:57 | 34.42362 | -20.68971 | 39066 ft | 547 kts | 82° |
| 2026-05-08 00:57 | 34.43390 | -20.59850 | 39069 ft | 546 kts | 82° |
| 2026-05-08 00:58 | 34.44411 | -20.50729 | 39070 ft | 546 kts | 82° |
| 2026-05-08 00:58 | 34.45425 | -20.41608 | 39070 ft | 546 kts | 82° |
| 2026-05-08 00:59 | 34.46429 | -20.32509 | 39067 ft | 544 kts | 82° |
| 2026-05-08 00:59 | 34.47426 | -20.23418 | 39067 ft | 544 kts | 82° |
| 2026-05-08 01:00 | 34.48416 | -20.14327 | 39067 ft | 544 kts | 83° |
| 2026-05-08 01:00 | 34.49393 | -20.05301 | 39069 ft | 543 kts | 82° |
| 2026-05-08 01:01 | 34.51424 | -19.96554 | 39073 ft | 538 kts | 65° |
| 2026-05-08 01:01 | 34.54481 | -19.88276 | 39067 ft | 538 kts | 62° |
| 2026-05-08 01:02 | 34.57723 | -19.80103 | 39067 ft | 538 kts | 61° |
| 2026-05-08 01:02 | 34.60966 | -19.71943 | 39066 ft | 536 kts | 62° |
| 2026-05-08 01:03 | 34.64177 | -19.63773 | 39063 ft | 537 kts | 62° |
| 2026-05-08 01:03 | 34.67378 | -19.55568 | 39061 ft | 538 kts | 62° |
| 2026-05-08 01:04 | 34.70573 | -19.47343 | 39061 ft | 538 kts | 62° |
| 2026-05-08 01:04 | 34.73760 | -19.39118 | 39064 ft | 537 kts | 62° |
| 2026-05-08 01:05 | 34.76932 | -19.30915 | 39061 ft | 536 kts | 62° |
| 2026-05-08 01:05 | 34.80100 | -19.22706 | 39059 ft | 536 kts | 62° |
| 2026-05-08 01:06 | 34.83261 | -19.14493 | 39059 ft | 536 kts | 62° |
| 2026-05-08 01:06 | 34.86414 | -19.06277 | 39064 ft | 535 kts | 63° |
| 2026-05-08 01:07 | 34.89531 | -18.98136 | 39061 ft | 533 kts | 63° |
| 2026-05-08 01:07 | 34.92660 | -18.89947 | 39059 ft | 533 kts | 63° |
| 2026-05-08 01:08 | 34.95784 | -18.81748 | 39059 ft | 533 kts | 63° |
| 2026-05-08 01:08 | 34.98901 | -18.73546 | 39059 ft | 533 kts | 63° |
| 2026-05-08 01:09 | 35.02016 | -18.65328 | 39053 ft | 534 kts | 63° |
| 2026-05-08 01:09 | 35.05124 | -18.57110 | 39086 ft | 534 kts | 63° |
| 2026-05-08 01:10 | 35.08232 | -18.48869 | 39048 ft | 535 kts | 63° |
| 2026-05-08 01:10 | 35.11341 | -18.40606 | 39061 ft | 535 kts | 63° |
| 2026-05-08 01:11 | 35.14436 | -18.32357 | 39059 ft | 534 kts | 63° |
| 2026-05-08 01:11 | 35.17525 | -18.24106 | 39059 ft | 533 kts | 63° |
| 2026-05-08 01:12 | 35.20605 | -18.15854 | 39040 ft | 534 kts | 64° |
| 2026-05-08 01:12 | 35.23683 | -18.07589 | 39059 ft | 534 kts | 63° |
| 2026-05-08 01:13 | 35.26753 | -17.99321 | 39045 ft | 533 kts | 64° |
| 2026-05-08 01:13 | 35.29811 | -17.91067 | 39042 ft | 533 kts | 64° |
| 2026-05-08 01:14 | 35.32867 | -17.82798 | 39053 ft | 533 kts | 64° |
| 2026-05-08 01:14 | 35.35918 | -17.74517 | 39053 ft | 533 kts | 64° |
| 2026-05-08 01:15 | 35.38956 | -17.66251 | 39045 ft | 531 kts | 63° |
| 2026-05-08 01:15 | 35.41983 | -17.57994 | 39034 ft | 531 kts | 63° |
| 2026-05-08 01:16 | 35.45004 | -17.49733 | 39039 ft | 531 kts | 63° |
| 2026-05-08 01:16 | 35.48000 | -17.41518 | 39049 ft | 530 kts | 64° |
| 2026-05-08 01:17 | 35.51005 | -17.33256 | 39039 ft | 530 kts | 64° |
| 2026-05-08 01:17 | 35.53999 | -17.25003 | 39039 ft | 529 kts | 64° |
| 2026-05-08 01:18 | 35.56987 | -17.16747 | 39040 ft | 529 kts | 64° |
| 2026-05-08 01:18 | 35.59971 | -17.08478 | 39038 ft | 529 kts | 64° |
| 2026-05-08 01:19 | 35.62949 | -17.00205 | 39047 ft | 529 kts | 64° |
| 2026-05-08 01:19 | 35.65920 | -16.91929 | 39041 ft | 529 kts | 64° |
| 2026-05-08 01:20 | 35.68886 | -16.83646 | 39042 ft | 529 kts | 64° |
| 2026-05-08 01:20 | 35.71847 | -16.75355 | 39046 ft | 529 kts | 64° |
| 2026-05-08 01:21 | 35.74801 | -16.67059 | 39042 ft | 529 kts | 64° |
| 2026-05-08 01:21 | 35.77748 | -16.58762 | 39039 ft | 529 kts | 64° |
| 2026-05-08 01:22 | 35.80690 | -16.50457 | 39039 ft | 529 kts | 64° |
| 2026-05-08 01:22 | 35.83626 | -16.42147 | 39043 ft | 529 kts | 64° |
| 2026-05-08 01:23 | 35.86557 | -16.33826 | 39063 ft | 529 kts | 64° |
| 2026-05-08 01:23 | 35.89474 | -16.25522 | 39038 ft | 526 kts | 64° |
| 2026-05-08 01:24 | 35.92377 | -16.17239 | 39039 ft | 526 kts | 64° |
| 2026-05-08 01:24 | 35.95272 | -16.08956 | 39036 ft | 526 kts | 64° |
| 2026-05-08 01:25 | 35.98164 | -16.00659 | 39038 ft | 526 kts | 64° |
| 2026-05-08 01:25 | 36.01047 | -15.92364 | 39031 ft | 525 kts | 64° |
| 2026-05-08 01:26 | 36.03898 | -15.84137 | 39034 ft | 524 kts | 64° |
| 2026-05-08 01:26 | 36.06763 | -15.75853 | 39034 ft | 524 kts | 64° |
| 2026-05-08 01:27 | 36.09622 | -15.67560 | 39034 ft | 524 kts | 64° |
| 2026-05-08 01:27 | 36.12475 | -15.59263 | 39032 ft | 524 kts | 64° |
| 2026-05-08 01:28 | 36.15318 | -15.50972 | 39032 ft | 523 kts | 64° |
| 2026-05-08 01:28 | 36.18153 | -15.42681 | 39028 ft | 523 kts | 64° |
| 2026-05-08 01:29 | 36.21445 | -15.34701 | 39029 ft | 520 kts | 57° |
| 2026-05-08 01:29 | 36.25028 | -15.26927 | 39048 ft | 519 kts | 56° |
| 2026-05-08 01:30 | 36.28663 | -15.19187 | 39027 ft | 520 kts | 56° |
| 2026-05-08 01:30 | 36.32297 | -15.11429 | 39024 ft | 520 kts | 56° |
| 2026-05-08 01:31 | 36.35916 | -15.03658 | 39025 ft | 520 kts | 57° |
| 2026-05-08 01:31 | 36.39528 | -14.95873 | 39026 ft | 520 kts | 57° |
| 2026-05-08 01:32 | 36.43129 | -14.88091 | 39023 ft | 519 kts | 57° |
| 2026-05-08 01:32 | 36.46714 | -14.80326 | 39023 ft | 518 kts | 57° |
| 2026-05-08 01:33 | 36.50294 | -14.72558 | 39019 ft | 518 kts | 57° |
| 2026-05-08 01:33 | 36.53845 | -14.64835 | 39021 ft | 518 kts | 57° |
| 2026-05-08 01:34 | 36.57414 | -14.57053 | 39014 ft | 518 kts | 57° |
| 2026-05-08 01:34 | 36.60970 | -14.49280 | 39020 ft | 516 kts | 57° |
| 2026-05-08 01:35 | 36.64509 | -14.41524 | 39018 ft | 515 kts | 57° |
| 2026-05-08 01:35 | 36.68045 | -14.33761 | 39015 ft | 515 kts | 57° |
| 2026-05-08 01:36 | 36.71576 | -14.25990 | 39015 ft | 515 kts | 57° |
| 2026-05-08 01:36 | 36.75102 | -14.18209 | 39011 ft | 515 kts | 57° |
| 2026-05-08 01:37 | 36.78615 | -14.10439 | 39012 ft | 514 kts | 57° |
| 2026-05-08 01:37 | 36.82119 | -14.02671 | 39013 ft | 514 kts | 57° |
| 2026-05-08 01:38 | 36.85618 | -13.94897 | 39012 ft | 513 kts | 57° |
| 2026-05-08 01:38 | 36.89111 | -13.87117 | 39010 ft | 514 kts | 57° |
| 2026-05-08 01:39 | 36.92600 | -13.79328 | 39015 ft | 513 kts | 57° |
| 2026-05-08 01:39 | 36.96083 | -13.71535 | 39007 ft | 513 kts | 57° |
| 2026-05-08 01:40 | 36.99538 | -13.63786 | 39004 ft | 513 kts | 57° |
| 2026-05-08 01:40 | 37.03007 | -13.55984 | 39003 ft | 513 kts | 57° |
| 2026-05-08 01:41 | 37.06476 | -13.48164 | 38998 ft | 514 kts | 57° |
| 2026-05-08 01:41 | 37.09939 | -13.40341 | 39013 ft | 514 kts | 57° |
| 2026-05-08 01:42 | 37.13400 | -13.32501 | 39004 ft | 514 kts | 57° |
| 2026-05-08 01:42 | 37.16294 | -13.25933 | 39012 ft | 514 kts | 57° |
| 2026-05-08 01:43 | 37.19721 | -13.18136 | 39010 ft | 514 kts | 57° |
| 2026-05-08 01:43 | 37.23168 | -13.10277 | 39011 ft | 514 kts | 57° |
| 2026-05-08 01:44 | 37.26608 | -13.02413 | 39001 ft | 514 kts | 57° |
| 2026-05-08 01:44 | 37.30041 | -12.94546 | 39002 ft | 514 kts | 57° |
| 2026-05-08 01:45 | 37.33472 | -12.86666 | 38999 ft | 514 kts | 57° |
| 2026-05-08 01:45 | 37.36918 | -12.78730 | 39000 ft | 514 kts | 57° |
| 2026-05-08 01:46 | 37.40310 | -12.70897 | 38996 ft | 512 kts | 57° |
| 2026-05-08 01:46 | 37.43709 | -12.63032 | 38993 ft | 511 kts | 57° |
| 2026-05-08 01:47 | 37.47099 | -12.55170 | 38997 ft | 511 kts | 57° |
| 2026-05-08 01:47 | 37.50486 | -12.47299 | 38996 ft | 511 kts | 57° |
| 2026-05-08 01:48 | 37.55549 | -12.35488 | 39000 ft | 509 kts | 57° |
| 2026-05-08 01:48 | 37.58892 | -12.27662 | 38988 ft | 506 kts | 57° |
| 2026-05-08 01:49 | 37.62224 | -12.19853 | 38988 ft | 506 kts | 57° |
| 2026-05-08 01:49 | 37.65552 | -12.12032 | 38993 ft | 506 kts | 57° |
| 2026-05-08 01:50 | 37.68875 | -12.04203 | 38995 ft | 506 kts | 57° |
| 2026-05-08 01:50 | 37.72184 | -11.96383 | 38991 ft | 503 kts | 57° |
| 2026-05-08 01:51 | 37.75471 | -11.88597 | 38988 ft | 502 kts | 57° |
| 2026-05-08 01:51 | 37.78752 | -11.80812 | 38987 ft | 502 kts | 57° |
| 2026-05-08 01:52 | 37.82030 | -11.73012 | 38979 ft | 502 kts | 57° |
| 2026-05-08 01:52 | 37.85280 | -11.65261 | 38985 ft | 502 kts | 57° |
| 2026-05-08 01:53 | 37.88549 | -11.57444 | 38978 ft | 502 kts | 57° |
| 2026-05-08 01:53 | 37.91812 | -11.49618 | 38980 ft | 502 kts | 57° |
| 2026-05-08 01:54 | 37.95091 | -11.41738 | 38977 ft | 502 kts | 57° |
| 2026-05-08 01:54 | 37.98324 | -11.33949 | 38985 ft | 503 kts | 57° |
| 2026-05-08 01:55 | 38.01567 | -11.26114 | 38985 ft | 500 kts | 57° |
| 2026-05-08 01:55 | 38.04786 | -11.18314 | 38988 ft | 498 kts | 57° |
| 2026-05-08 01:56 | 38.07996 | -11.10525 | 38968 ft | 498 kts | 57° |
| 2026-05-08 01:56 | 38.11203 | -11.02723 | 38979 ft | 498 kts | 57° |
| 2026-05-08 01:57 | 38.14404 | -10.94915 | 38986 ft | 498 kts | 57° |
| 2026-05-08 01:57 | 38.17587 | -10.87127 | 38976 ft | 494 kts | 57° |
| 2026-05-08 01:58 | 38.20737 | -10.79402 | 38974 ft | 491 kts | 57° |
| 2026-05-08 01:58 | 38.23881 | -10.71680 | 38971 ft | 492 kts | 57° |
| 2026-05-08 01:59 | 38.27018 | -10.63953 | 38971 ft | 492 kts | 57° |
| 2026-05-08 01:59 | 38.30151 | -10.56215 | 38979 ft | 492 kts | 58° |
| 2026-05-08 02:00 | 38.33269 | -10.48490 | 38971 ft | 489 kts | 58° |
| 2026-05-08 02:00 | 38.36368 | -10.40795 | 38969 ft | 488 kts | 58° |
| 2026-05-08 02:01 | 38.39464 | -10.33092 | 38966 ft | 488 kts | 58° |
| 2026-05-08 02:01 | 38.42557 | -10.25378 | 38963 ft | 488 kts | 58° |
| 2026-05-08 02:02 | 38.45644 | -10.17659 | 38980 ft | 488 kts | 59° |
| 2026-05-08 02:02 | 38.48713 | -10.09961 | 38960 ft | 485 kts | 59° |
| 2026-05-08 02:03 | 38.51764 | -10.02290 | 38960 ft | 485 kts | 59° |
| 2026-05-08 02:03 | 38.54811 | -9.94614 | 38958 ft | 485 kts | 59° |
| 2026-05-08 02:04 | 38.57856 | -9.86924 | 38957 ft | 485 kts | 59° |
| 2026-05-08 02:04 | 38.60874 | -9.79282 | 38958 ft | 485 kts | 60° |
| 2026-05-08 02:05 | 38.63915 | -9.71567 | 38952 ft | 486 kts | 60° |
| 2026-05-08 02:05 | 38.66954 | -9.63831 | 38952 ft | 486 kts | 60° |
| 2026-05-08 02:06 | 38.69988 | -9.56093 | 38952 ft | 486 kts | 60° |
| 2026-05-08 02:06 | 38.73016 | -9.48348 | 38952 ft | 486 kts | 60° |
| 2026-05-08 02:07 | 38.76044 | -9.40587 | 38956 ft | 489 kts | 60° |
| 2026-05-08 02:07 | 38.79089 | -9.32762 | 38948 ft | 491 kts | 60° |
| 2026-05-08 02:08 | 38.82131 | -9.24921 | 38949 ft | 491 kts | 60° |
| 2026-05-08 02:08 | 38.85168 | -9.17072 | 38941 ft | 491 kts | 60° |
| 2026-05-08 02:09 | 38.88203 | -9.09208 | 38946 ft | 491 kts | 60° |
| 2026-05-08 02:09 | 38.91238 | -9.01327 | 38948 ft | 494 kts | 60° |
| 2026-05-08 02:10 | 38.94278 | -8.93410 | 38945 ft | 494 kts | 60° |
| 2026-05-08 02:10 | 38.97310 | -8.85491 | 38945 ft | 494 kts | 61° |
| 2026-05-08 02:11 | 39.00321 | -8.77607 | 38944 ft | 494 kts | 61° |
| 2026-05-08 02:11 | 39.03345 | -8.69670 | 38948 ft | 495 kts | 61° |
| 2026-05-08 02:12 | 39.06375 | -8.61698 | 38938 ft | 497 kts | 61° |
| 2026-05-08 02:12 | 39.09403 | -8.53707 | 38938 ft | 497 kts | 61° |
| 2026-05-08 02:13 | 39.12429 | -8.45699 | 38937 ft | 497 kts | 61° |
| 2026-05-08 02:13 | 39.15446 | -8.37695 | 38941 ft | 497 kts | 61° |
| 2026-05-08 02:14 | 39.18461 | -8.29676 | 38943 ft | 498 kts | 61° |
| 2026-05-08 02:14 | 39.21477 | -8.21631 | 38935 ft | 499 kts | 62° |
| 2026-05-08 02:15 | 39.24489 | -8.13574 | 38930 ft | 499 kts | 62° |
| 2026-05-08 02:15 | 39.27495 | -8.05513 | 38930 ft | 499 kts | 62° |
| 2026-05-08 02:16 | 39.30498 | -7.97436 | 38925 ft | 499 kts | 62° |
| 2026-05-08 02:16 | 39.33492 | -7.89364 | 38926 ft | 498 kts | 62° |
| 2026-05-08 02:17 | 39.36459 | -7.81343 | 38924 ft | 498 kts | 62° |
| 2026-05-08 02:17 | 39.39439 | -7.73265 | 38925 ft | 498 kts | 62° |
| 2026-05-08 02:18 | 39.42413 | -7.65179 | 38924 ft | 498 kts | 62° |
| 2026-05-08 02:18 | 39.45383 | -7.57084 | 38924 ft | 498 kts | 62° |
| 2026-05-08 02:19 | 39.48348 | -7.48981 | 38921 ft | 498 kts | 62° |
| 2026-05-08 02:19 | 39.51310 | -7.40862 | 38916 ft | 499 kts | 62° |
| 2026-05-08 02:20 | 39.54124 | -7.32649 | 38916 ft | 500 kts | 66° |
| 2026-05-08 02:20 | 39.56548 | -7.24187 | 38912 ft | 501 kts | 68° |
| 2026-05-08 02:21 | 39.58894 | -7.15686 | 38920 ft | 501 kts | 68° |
| 2026-05-08 02:21 | 39.61270 | -7.07200 | 38910 ft | 500 kts | 68° |
| 2026-05-08 02:22 | 39.63667 | -6.98738 | 38907 ft | 500 kts | 68° |
| 2026-05-08 02:22 | 39.66066 | -6.90273 | 38910 ft | 500 kts | 68° |
| 2026-05-08 02:23 | 39.68460 | -6.81800 | 38913 ft | 500 kts | 68° |
| 2026-05-08 02:23 | 39.70825 | -6.73395 | 38906 ft | 499 kts | 68° |
| 2026-05-08 02:24 | 39.73195 | -6.64939 | 38907 ft | 498 kts | 68° |
| 2026-05-08 02:24 | 39.75560 | -6.56474 | 38906 ft | 498 kts | 68° |
| 2026-05-08 02:25 | 39.77922 | -6.47996 | 38906 ft | 498 kts | 68° |
| 2026-05-08 02:25 | 39.80004 | -6.39409 | 38909 ft | 499 kts | 78° |
| 2026-05-08 02:26 | 39.81037 | -6.30474 | 38903 ft | 500 kts | 82° |
| 2026-05-08 02:26 | 39.81844 | -6.21480 | 38902 ft | 501 kts | 83° |
| 2026-05-08 02:27 | 39.82606 | -6.12479 | 38906 ft | 501 kts | 83° |
| 2026-05-08 02:27 | 39.83378 | -6.03473 | 38906 ft | 500 kts | 83° |
| 2026-05-08 02:28 | 39.84154 | -5.94494 | 38901 ft | 499 kts | 83° |
| 2026-05-08 02:28 | 39.84927 | -5.85514 | 38914 ft | 499 kts | 83° |
| 2026-05-08 02:29 | 39.85693 | -5.76540 | 38705 ft | 498 kts | 83° |
| 2026-05-08 02:29 | 39.86071 | -5.72072 | 38466 ft | 496 kts | 83° |
| 2026-05-08 02:29 | 39.86447 | -5.67615 | 38185 ft | 495 kts | 84° |
| 2026-05-08 02:30 | 39.86819 | -5.63171 | 37907 ft | 493 kts | 84° |
| 2026-05-08 02:30 | 39.87190 | -5.58731 | 37630 ft | 493 kts | 84° |
| 2026-05-08 02:30 | 39.87558 | -5.54299 | 37386 ft | 493 kts | 84° |
| 2026-05-08 02:30 | 39.87801 | -5.51364 | 37205 ft | 492 kts | 85° |
| 2026-05-08 02:31 | 39.88166 | -5.46937 | 36930 ft | 491 kts | 85° |
| 2026-05-08 02:31 | 39.88527 | -5.42531 | 36465 ft | 488 kts | 85° |
| 2026-05-08 02:31 | 39.89002 | -5.36708 | 35681 ft | 489 kts | 85° |
| 2026-05-08 02:31 | 39.89360 | -5.32303 | 35005 ft | 489 kts | 86° |
| 2026-05-08 02:32 | 39.89600 | -5.29324 | 34543 ft | 490 kts | 87° |
| 2026-05-08 02:32 | 39.89955 | -5.24903 | 33785 ft | 492 kts | 88° |
| 2026-05-08 02:32 | 39.90309 | -5.20453 | 32872 ft | 495 kts | 88° |
| 2026-05-08 02:32 | 39.90662 | -5.15987 | 32033 ft | 496 kts | 88° |
| 2026-05-08 02:33 | 39.91011 | -5.11573 | 31182 ft | 497 kts | 88° |
| 2026-05-08 02:33 | 39.91365 | -5.07091 | 30454 ft | 496 kts | 88° |
| 2026-05-08 02:33 | 39.91716 | -5.02656 | 29880 ft | 490 kts | 88° |
| 2026-05-08 02:33 | 39.92063 | -4.98265 | 29203 ft | 484 kts | 88° |
| 2026-05-08 02:34 | 39.92402 | -4.93933 | 28581 ft | 478 kts | 89° |
| 2026-05-08 02:34 | 39.92736 | -4.89654 | 28015 ft | 471 kts | 88° |
| 2026-05-08 02:34 | 39.93062 | -4.85434 | 27417 ft | 466 kts | 88° |
| 2026-05-08 02:34 | 39.93382 | -4.81262 | 26828 ft | 460 kts | 88° |
| 2026-05-08 02:35 | 39.93696 | -4.77131 | 26225 ft | 456 kts | 88° |
| 2026-05-08 02:35 | 39.94005 | -4.73043 | 25645 ft | 451 kts | 88° |
| 2026-05-08 02:35 | 39.94310 | -4.69000 | 25054 ft | 447 kts | 88° |
| 2026-05-08 02:35 | 39.94611 | -4.64991 | 24468 ft | 442 kts | 88° |
| 2026-05-08 02:36 | 39.94909 | -4.61019 | 23889 ft | 438 kts | 87° |
| 2026-05-08 02:36 | 39.95207 | -4.57082 | 23298 ft | 434 kts | 87° |
| 2026-05-08 02:36 | 39.95500 | -4.53191 | 22684 ft | 429 kts | 87° |
| 2026-05-08 02:36 | 39.95786 | -4.49350 | 22113 ft | 423 kts | 87° |
| 2026-05-08 02:37 | 39.96065 | -4.45560 | 21565 ft | 417 kts | 87° |
| 2026-05-08 02:37 | 39.96338 | -4.41821 | 21011 ft | 412 kts | 87° |
| 2026-05-08 02:37 | 39.96570 | -4.38121 | 20476 ft | 406 kts | 91° |
| 2026-05-08 02:37 | 39.96306 | -4.34513 | 19945 ft | 396 kts | 107° |
| 2026-05-08 02:38 | 39.95259 | -4.31258 | 19424 ft | 386 kts | 125° |
| 2026-05-08 02:38 | 39.93693 | -4.28453 | 18904 ft | 381 kts | 131° |
| 2026-05-08 02:38 | 39.92024 | -4.25793 | 18399 ft | 378 kts | 133° |
| 2026-05-08 02:38 | 39.90356 | -4.23168 | 17844 ft | 375 kts | 133° |
| 2026-05-08 02:39 | 39.88702 | -4.20557 | 17343 ft | 372 kts | 132° |
| 2026-05-08 02:39 | 39.87070 | -4.17970 | 16834 ft | 368 kts | 132° |
| 2026-05-08 02:39 | 39.85458 | -4.15408 | 16333 ft | 364 kts | 132° |
| 2026-05-08 02:39 | 39.84001 | -4.12726 | 15838 ft | 364 kts | 121° |
| 2026-05-08 02:40 | 39.83125 | -4.09638 | 15341 ft | 366 kts | 106° |
| 2026-05-08 02:40 | 39.82642 | -4.06391 | 14873 ft | 363 kts | 102° |
| 2026-05-08 02:40 | 39.82250 | -4.03251 | 14659 ft | 352 kts | 102° |
| 2026-05-08 02:40 | 39.81855 | -4.00076 | 14164 ft | 350 kts | 102° |
| 2026-05-08 02:41 | 39.81601 | -3.96975 | 13733 ft | 351 kts | 92° |
| 2026-05-08 02:41 | 39.82011 | -3.93825 | 13385 ft | 359 kts | 72° |
| 2026-05-08 02:41 | 39.83273 | -3.91011 | 13033 ft | 363 kts | 52° |
| 2026-05-08 02:41 | 39.84979 | -3.88599 | 12675 ft | 362 kts | 47° |
| 2026-05-08 02:42 | 39.86752 | -3.86283 | 12409 ft | 360 kts | 46° |
| 2026-05-08 02:42 | 39.88523 | -3.83978 | 12079 ft | 359 kts | 46° |
| 2026-05-08 02:42 | 39.90275 | -3.81682 | 11720 ft | 356 kts | 46° |
| 2026-05-08 02:42 | 39.92007 | -3.79394 | 11375 ft | 354 kts | 47° |
| 2026-05-08 02:43 | 39.93705 | -3.77143 | 11186 ft | 342 kts | 47° |
| 2026-05-08 02:43 | 39.95349 | -3.74957 | 10882 ft | 333 kts | 47° |
| 2026-05-08 02:43 | 39.96952 | -3.72822 | 10563 ft | 326 kts | 47° |
| 2026-05-08 02:43 | 39.98521 | -3.70729 | 10252 ft | 319 kts | 47° |
| 2026-05-08 02:44 | 40.00053 | -3.68682 | 9993 ft | 311 kts | 47° |
| 2026-05-08 02:44 | 40.01543 | -3.66693 | 9752 ft | 303 kts | 47° |
| 2026-05-08 02:44 | 40.03009 | -3.64732 | 9297 ft | 302 kts | 47° |
| 2026-05-08 02:44 | 40.04466 | -3.62782 | 8915 ft | 298 kts | 47° |
| 2026-05-08 02:45 | 40.05904 | -3.60855 | 8584 ft | 294 kts | 47° |
| 2026-05-08 02:45 | 40.07329 | -3.58946 | 8325 ft | 292 kts | 47° |
| 2026-05-08 02:45 | 40.08743 | -3.57049 | 8061 ft | 291 kts | 47° |
| 2026-05-08 02:45 | 40.10157 | -3.55152 | 7776 ft | 291 kts | 47° |
| 2026-05-08 02:46 | 40.11565 | -3.53260 | 7497 ft | 290 kts | 47° |
| 2026-05-08 02:46 | 40.12967 | -3.51376 | 7219 ft | 289 kts | 47° |
| 2026-05-08 02:46 | 40.14370 | -3.49490 | 6940 ft | 289 kts | 47° |
| 2026-05-08 02:46 | 40.15767 | -3.47608 | 6673 ft | 287 kts | 47° |
| 2026-05-08 02:47 | 40.17147 | -3.45790 | 6519 ft | 277 kts | 46° |
| 2026-05-08 02:47 | 40.18522 | -3.44089 | 6416 ft | 267 kts | 44° |
| 2026-05-08 02:47 | 40.19871 | -3.42487 | 6273 ft | 258 kts | 43° |
| 2026-05-08 02:47 | 40.21319 | -3.41135 | 6073 ft | 253 kts | 35° |
| 2026-05-08 02:48 | 40.22807 | -3.39938 | 5993 ft | 250 kts | 32° |
| 2026-05-08 02:48 | 40.24323 | -3.38946 | 5999 ft | 238 kts | 20° |
| 2026-05-08 02:48 | 40.25914 | -3.38550 | 6017 ft | 231 kts | 4° |
| 2026-05-08 02:48 | 40.27498 | -3.38555 | 6009 ft | 229 kts | 358° |
| 2026-05-08 02:49 | 40.29029 | -3.38771 | 5997 ft | 215 kts | 347° |
| 2026-05-08 02:49 | 40.30423 | -3.39392 | 5946 ft | 210 kts | 333° |
| 2026-05-08 02:49 | 40.31643 | -3.40425 | 5707 ft | 209 kts | 320° |
| 2026-05-08 02:49 | 40.32770 | -3.41626 | 5408 ft | 210 kts | 320° |
| 2026-05-08 02:50 | 40.33920 | -3.42804 | 5092 ft | 211 kts | 321° |
| 2026-05-08 02:50 | 40.35085 | -3.43977 | 4801 ft | 211 kts | 323° |
| 2026-05-08 02:50 | 40.36243 | -3.45152 | 4521 ft | 210 kts | 323° |
| 2026-05-08 02:50 | 40.37394 | -3.46320 | 4232 ft | 209 kts | 323° |
| 2026-05-08 02:51 | 40.38534 | -3.47476 | 3948 ft | 204 kts | 323° |
| 2026-05-08 02:51 | 40.39628 | -3.48588 | 3681 ft | 196 kts | 324° |
| 2026-05-08 02:51 | 40.40694 | -3.49671 | 3433 ft | 192 kts | 324° |
| 2026-05-08 02:51 | 40.41731 | -3.50727 | 3179 ft | 184 kts | 325° |
| 2026-05-08 02:52 | 40.42711 | -3.51723 | 2909 ft | 170 kts | 323° |
| 2026-05-08 02:52 | 40.43603 | -3.52633 | 2689 ft | 155 kts | 323° |
| 2026-05-08 02:52 | 40.44420 | -3.53468 | 2469 ft | 143 kts | 323° |
| 2026-05-08 02:52 | 40.45185 | -3.54247 | 2249 ft | 136 kts | 324° |
| 2026-05-08 02:53 | 40.45931 | -3.54992 | 2054 ft | 134 kts | 323° |
| 2026-05-08 02:53 | 40.46662 | -3.55735 | 1968 ft | 129 kts | 324° |
| 2026-05-08 02:53 | 40.47283 | -3.56372 | 1992 ft | 98 kts | 322° |
| 2026-05-08 02:53 | 40.47751 | -3.56850 | 1998 ft | 68 kts | 322° |
| 2026-05-08 02:54 | 40.48079 | -3.57115 | 2005 ft | 47 kts | 339° |
| 2026-05-08 02:54 | 40.48268 | -3.57193 | 2006 ft | 23 kts | 347° |
| 2026-05-08 02:54 | 40.48389 | -3.57219 | 2003 ft | 16 kts | 354° |
| 2026-05-08 02:54 | 40.48506 | -3.57230 | 1998 ft | 16 kts | 1° |
| 2026-05-08 02:55 | 40.48616 | -3.57229 | 1998 ft | 16 kts | 0° |
| 2026-05-08 02:55 | 40.48805 | -3.57226 | 1989 ft | 7 kts | 0° |
| 2026-05-08 02:55 | 40.48847 | -3.57208 | 1990 ft | 6 kts | 44° |
| 2026-05-08 02:56 | 40.48860 | -3.57114 | 1985 ft | 13 kts | 88° |
| 2026-05-08 02:56 | 40.48861 | -3.56977 | 1982 ft | 16 kts | 89° |
| 2026-05-08 02:56 | 40.48861 | -3.56814 | 1979 ft | 19 kts | 89° |
| 2026-05-08 02:56 | 40.48861 | -3.56652 | 1977 ft | 15 kts | 90° |
| 2026-05-08 02:57 | 40.48862 | -3.56503 | 1972 ft | 18 kts | 90° |
| 2026-05-08 02:57 | 40.48862 | -3.56352 | 1968 ft | 15 kts | 90° |
| 2026-05-08 02:57 | 40.48868 | -3.56252 | 1968 ft | 5 kts | 64° |
| 2026-05-08 02:57 | 40.48890 | -3.56246 | 1966 ft | 6 kts | 7° |
| 2026-05-08 02:58 | 40.48937 | -3.56249 | 1966 ft | 6 kts | 340° |
| 2026-05-08 02:58 | 40.48949 | -3.56286 | 1967 ft | 6 kts | 278° |
| 2026-05-08 02:58 | 40.48950 | -3.56340 | 1968 ft | 5 kts | 270° |
| 2026-05-08 02:58 | 40.48951 | -3.56358 | 1969 ft | 0 kts | 270° |
| 2026-05-08 02:59 | 40.48951 | -3.56362 | 1974 ft | 0 kts | 270° |
| 2026-05-08 02:59 | 40.48951 | -3.56363 | 1974 ft | 0 kts | 270° |